Observation data for Palo Duro Reservoir 1NW on 07/06/2020      Previous  Date  Next       Current Mesonet Observations  Soil Data  Daily Summary Page  Observations in Plain Language
KPD4 060500Z 02004KT 21/18 A3005 RMK A01 T02090184  RH  085%=      5-min Rain = 0
KPD4 060501Z 02004KT 21/18 A3005 RMK A01 T02090183  RH  085%=      5-min Rain = 0
KPD4 060502Z 02004KT 21/18 A3005 RMK A01 T02090183  RH  085%=      5-min Rain = 0
KPD4 060503Z 02004KT 21/18 A3005 RMK A01 T02090183  RH  085%=      5-min Rain = 0
KPD4 060504Z 02004KT 21/18 A3005 RMK A01 T02090183  RH  085%=      5-min Rain = 0
KPD4 060505Z 02004KT 21/18 A3005 RMK A01 T02090182  RH  084%=      5-min Rain = 0
KPD4 060506Z 02004KT 21/18 A3005 RMK A01 T02100182  RH  084%=      5-min Rain = 0
KPD4 060507Z 03004KT 21/18 A3005 RMK A01 T02100182  RH  084%=      5-min Rain = 0
KPD4 060508Z 04004KT 21/18 A3005 RMK A01 T02110182  RH  084%=      5-min Rain = 0
KPD4 060509Z 04004KT 21/18 A3005 RMK A01 T02110182  RH  084%=      5-min Rain = 0
KPD4 060510Z 06003KT 21/18 A3004 RMK A01 T02100182  RH  084%=      5-min Rain = 0
KPD4 060511Z 06003KT 21/18 A3004 RMK A01 T02100182  RH  084%=      5-min Rain = 0
KPD4 060512Z 06003KT 21/18 A3004 RMK A01 T02090181  RH  084%=      5-min Rain = 0
KPD4 060513Z 06003KT 21/18 A3004 RMK A01 T02090182  RH  084%=      5-min Rain = 0
KPD4 060514Z 06004KT 21/18 A3004 RMK A01 T02090181  RH  084%=      5-min Rain = 0
KPD4 060515Z 05004KT 21/18 A3004 RMK A01 T02100181  RH  083%=      5-min Rain = 0
KPD4 060516Z 05004KT 21/18 A3004 RMK A01 T02100180  RH  083%=      5-min Rain = 0
KPD4 060517Z 05004KT 21/18 A3004 RMK A01 T02100180  RH  083%=      5-min Rain = 0
KPD4 060518Z 05004KT 21/18 A3004 RMK A01 T02110180  RH  083%=      5-min Rain = 0
KPD4 060519Z 04004KT 21/18 A3004 RMK A01 T02110180  RH  083%=      5-min Rain = 0
KPD4 060520Z 04004KT 21/18 A3004 RMK A01 T02110180  RH  083%=      5-min Rain = 0
KPD4 060521Z 05004KT 21/18 A3004 RMK A01 T02110180  RH  083%=      5-min Rain = 0
KPD4 060522Z 05004KT 21/18 A3004 RMK A01 T02110180  RH  083%=      5-min Rain = 0
KPD4 060523Z 05004KT 21/18 A3004 RMK A01 T02110180  RH  083%=      5-min Rain = 0
KPD4 060524Z 05003KT 21/18 A3004 RMK A01 T02110180  RH  082%=      5-min Rain = 0
KPD4 060525Z 05003KT 21/18 A3004 RMK A01 T02110179  RH  082%=      5-min Rain = 0
KPD4 060526Z 05003KT 21/18 A3004 RMK A01 T02120179  RH  082%=      5-min Rain = 0
KPD4 060527Z 05003KT 21/18 A3004 RMK A01 T02130179  RH  081%=      5-min Rain = 0
KPD4 060528Z 04003KT 21/18 A3004 RMK A01 T02130179  RH  081%=      5-min Rain = 0
KPD4 060529Z 04004KT 21/18 A3004 RMK A01 T02130179  RH  081%=      5-min Rain = 0
KPD4 060530Z 03004KT 21/18 A3004 RMK A01 T02130179  RH  081%=      5-min Rain = 0
KPD4 060531Z 03004KT 21/18 A3004 RMK A01 T02130179  RH  081%=      5-min Rain = 0
KPD4 060532Z 03005KT 21/18 A3004 RMK A01 T02120179  RH  081%=      5-min Rain = 0
KPD4 060533Z 03005KT 21/18 A3004 RMK A01 T02120179  RH  081%=      5-min Rain = 0
KPD4 060534Z 03005KT 21/18 A3004 RMK A01 T02120179  RH  081%=      5-min Rain = 0
KPD4 060535Z 02005KT 21/18 A3004 RMK A01 T02120178  RH  081%=      5-min Rain = 0
KPD4 060536Z 02006KT 21/18 A3004 RMK A01 T02120179  RH  081%=      5-min Rain = 0
KPD4 060537Z 02006KT 21/18 A3004 RMK A01 T02120179  RH  081%=      5-min Rain = 0
KPD4 060538Z 02006KT 21/18 A3004 RMK A01 T02120178  RH  081%=      5-min Rain = 0
KPD4 060539Z 02006KT 21/18 A3004 RMK A01 T02120178  RH  081%=      5-min Rain = 0
KPD4 060540Z 02006KT 21/18 A3004 RMK A01 T02120178  RH  081%=      5-min Rain = 0
KPD4 060541Z 02006KT 21/18 A3004 RMK A01 T02120178  RH  081%=      5-min Rain = 0
KPD4 060542Z 02006KT 21/18 A3004 RMK A01 T02120178  RH  081%=      5-min Rain = 0
KPD4 060543Z 02006KT 21/18 A3004 RMK A01 T02110178  RH  081%=      5-min Rain = 0
KPD4 060544Z 02006KT 21/18 A3004 RMK A01 T02110178  RH  082%=      5-min Rain = 0
KPD4 060545Z 02006KT 21/18 A3004 RMK A01 T02100178  RH  082%=      5-min Rain = 0
KPD4 060546Z 02007KT 21/18 A3004 RMK A01 T02100178  RH  082%=      5-min Rain = 0
KPD4 060547Z 02007KT 21/18 A3004 RMK A01 T02100178  RH  082%=      5-min Rain = 0
KPD4 060548Z 02007KT 21/18 A3004 RMK A01 T02100178  RH  082%=      5-min Rain = 0
KPD4 060549Z 02007KT 21/18 A3004 RMK A01 T02090178  RH  082%=      5-min Rain = 0
KPD4 060550Z 02007KT 21/18 A3004 RMK A01 T02090178  RH  082%=      5-min Rain = 0
KPD4 060551Z 02007KT 21/18 A3004 RMK A01 T02090178  RH  082%=      5-min Rain = 0
KPD4 060552Z 02007KT 21/18 A3004 RMK A01 T02090178  RH  082%=      5-min Rain = 0
KPD4 060553Z 02006KT 21/18 A3004 RMK A01 T02090178  RH  082%=      5-min Rain = 0
KPD4 060554Z 02006KT 21/18 A3004 RMK A01 T02090177  RH  082%=      5-min Rain = 0
KPD4 060555Z 02006KT 21/18 A3004 RMK A01 T02090177  RH  082%=      5-min Rain = 0
KPD4 060556Z 02006KT 21/18 A3004 RMK A01 T02080178  RH  083%=      5-min Rain = 0
KPD4 060557Z 02006KT 21/18 A3004 RMK A01 T02080178  RH  083%=      5-min Rain = 0
KPD4 060558Z 02005KT 21/18 A3004 RMK A01 T02080177  RH  083%=      5-min Rain = 0
KPD4 060559Z 02005KT 21/18 A3004 RMK A01 T02080177  RH  083%=      5-min Rain = 0
KPD4 060600Z 02005KT 21/18 A3004 RMK A01 T02080177  RH  083%=      5-min Rain = 0
KPD4 060601Z 02005KT 21/18 A3004 RMK A01 T02080177  RH  083%=      5-min Rain = 0
KPD4 060602Z 02005KT 21/18 A3004 RMK A01 T02080177  RH  083%=      5-min Rain = 0
KPD4 060603Z 02005KT 21/18 A3005 RMK A01 T02080178  RH  083%=      5-min Rain = 0
KPD4 060604Z 02005KT 21/18 A3005 RMK A01 T02080178  RH  083%=      5-min Rain = 0
KPD4 060605Z 02004KT 21/18 A3005 RMK A01 T02070177  RH  083%=      5-min Rain = 0
KPD4 060606Z 03005KT 21/18 A3005 RMK A01 T02070177  RH  083%=      5-min Rain = 0
KPD4 060607Z 03005KT 21/18 A3005 RMK A01 T02080177  RH  083%=      5-min Rain = 0
KPD4 060608Z 03005KT 21/18 A3005 RMK A01 T02080177  RH  082%=      5-min Rain = 0
KPD4 060609Z 03005KT 21/18 A3005 RMK A01 T02080177  RH  082%=      5-min Rain = 0
KPD4 060610Z 03005KT 21/18 A3005 RMK A01 T02080177  RH  082%=      5-min Rain = 0
KPD4 060611Z 03005KT 21/18 A3005 RMK A01 T02090177  RH  082%=      5-min Rain = 0
KPD4 060612Z 03006KT 21/18 A3005 RMK A01 T02090177  RH  082%=      5-min Rain = 0
KPD4 060613Z 03005KT 21/18 A3005 RMK A01 T02090176  RH  082%=      5-min Rain = 0
KPD4 060614Z 03005KT 21/18 A3005 RMK A01 T02090177  RH  082%=      5-min Rain = 0
KPD4 060615Z 03005KT 21/18 A3005 RMK A01 T02090176  RH  082%=      5-min Rain = 0
KPD4 060616Z 03005KT 21/18 A3005 RMK A01 T02090176  RH  081%=      5-min Rain = 0
KPD4 060617Z 03005KT 21/18 A3005 RMK A01 T02100176  RH  081%=      5-min Rain = 0
KPD4 060618Z 03006KT 21/18 A3005 RMK A01 T02100176  RH  081%=      5-min Rain = 0
KPD4 060619Z 04005KT 21/18 A3005 RMK A01 T02100176  RH  081%=      5-min Rain = 0
KPD4 060620Z 04005KT 21/18 A3005 RMK A01 T02100176  RH  081%=      5-min Rain = 0
KPD4 060621Z 04004KT 21/18 A3005 RMK A01 T02090176  RH  081%=      5-min Rain = 0
KPD4 060622Z 04003KT 21/18 A3005 RMK A01 T02090176  RH  082%=      5-min Rain = 0
KPD4 060623Z 04003KT 21/18 A3005 RMK A01 T02090176  RH  082%=      5-min Rain = 0
KPD4 060624Z 04003KT 21/18 A3005 RMK A01 T02080176  RH  082%=      5-min Rain = 0
KPD4 060625Z 04003KT 21/18 A3005 RMK A01 T02080176  RH  082%=      5-min Rain = 0
KPD4 060626Z 04003KT 21/18 A3004 RMK A01 T02080176  RH  082%=      5-min Rain = 0
KPD4 060627Z 04003KT 21/18 A3004 RMK A01 T02070176  RH  082%=      5-min Rain = 0
KPD4 060628Z 04003KT 21/18 A3004 RMK A01 T02070176  RH  082%=      5-min Rain = 0
KPD4 060629Z 04003KT 21/18 A3004 RMK A01 T02070176  RH  082%=      5-min Rain = 0
KPD4 060630Z 04002KT 21/18 A3004 RMK A01 T02070176  RH  082%=      5-min Rain = 0
KPD4 060631Z 03002KT 21/18 A3004 RMK A01 T02070176  RH  083%=      5-min Rain = 0
KPD4 060632Z 04003KT 21/18 A3004 RMK A01 T02060176  RH  083%=      5-min Rain = 0
KPD4 060633Z 03003KT 21/18 A3004 RMK A01 T02060176  RH  083%=      5-min Rain = 0
KPD4 060634Z 03003KT 21/18 A3004 RMK A01 T02060176  RH  083%=      5-min Rain = 0
KPD4 060635Z 03004KT 21/18 A3004 RMK A01 T02060176  RH  083%=      5-min Rain = 0
KPD4 060636Z 02004KT 21/18 A3004 RMK A01 T02060176  RH  083%=      5-min Rain = 0
KPD4 060637Z 02004KT 21/18 A3004 RMK A01 T02060176  RH  083%=      5-min Rain = 0
KPD4 060638Z 02005KT 21/18 A3004 RMK A01 T02050175  RH  083%=      5-min Rain = 0
KPD4 060639Z 03005KT 21/18 A3004 RMK A01 T02050175  RH  083%=      5-min Rain = 0
KPD4 060640Z 02005KT 21/18 A3004 RMK A01 T02050175  RH  083%=      5-min Rain = 0
KPD4 060641Z 02005KT 20/18 A3004 RMK A01 T02040175  RH  083%=      5-min Rain = 0
KPD4 060642Z 02006KT 20/18 A3004 RMK A01 T02040175  RH  083%=      5-min Rain = 0
KPD4 060643Z 02006KT 20/18 A3004 RMK A01 T02040175  RH  083%=      5-min Rain = 0
KPD4 060644Z 03007KT 20/18 A3004 RMK A01 T02040175  RH  083%=      5-min Rain = 0
KPD4 060645Z 03007KT 20/18 A3004 RMK A01 T02040175  RH  083%=      5-min Rain = 0
KPD4 060646Z 03007KT 20/18 A3004 RMK A01 T02040175  RH  083%=      5-min Rain = 0
KPD4 060647Z 03007KT 20/18 A3004 RMK A01 T02040175  RH  083%=      5-min Rain = 0
KPD4 060648Z 03007KT 21/18 A3004 RMK A01 T02050175  RH  083%=      5-min Rain = 0
KPD4 060649Z 03007KT 21/18 A3004 RMK A01 T02050175  RH  083%=      5-min Rain = 0
KPD4 060650Z 03007KT 21/18 A3003 RMK A01 T02050175  RH  083%=      5-min Rain = 0
KPD4 060651Z 03006KT 21/18 A3003 RMK A01 T02050175  RH  083%=      5-min Rain = 0
KPD4 060652Z 03006KT 21/18 A3003 RMK A01 T02050175  RH  083%=      5-min Rain = 0
KPD4 060653Z 04007KT 21/18 A3003 RMK A01 T02050175  RH  083%=      5-min Rain = 0
KPD4 060654Z 04007KT 20/18 A3003 RMK A01 T02040175  RH  083%=      5-min Rain = 0
KPD4 060655Z 04007KT 20/18 A3003 RMK A01 T02040175  RH  083%=      5-min Rain = 0
KPD4 060656Z 04007KT 20/17 A3003 RMK A01 T02040174  RH  083%=      5-min Rain = 0
KPD4 060657Z 04006KT 20/18 A3003 RMK A01 T02040175  RH  083%=      5-min Rain = 0
KPD4 060658Z 04006KT 21/18 A3003 RMK A01 T02050175  RH  083%=      5-min Rain = 0
KPD4 060659Z 04006KT 21/18 A3003 RMK A01 T02050175  RH  083%=      5-min Rain = 0
KPD4 060700Z 04006KT 20/18 A3003 RMK A01 T02040175  RH  083%=      5-min Rain = 0
KPD4 060701Z 04005KT 20/18 A3003 RMK A01 T02040175  RH  083%=      5-min Rain = 0
KPD4 060702Z 04005KT 20/18 A3003 RMK A01 T02040175  RH  083%=      5-min Rain = 0
KPD4 060703Z 05006KT 20/17 A3004 RMK A01 T02040174  RH  083%=      5-min Rain = 0
KPD4 060704Z 05006KT 20/17 A3004 RMK A01 T02030174  RH  083%=      5-min Rain = 0
KPD4 060705Z 05006KT 20/17 A3004 RMK A01 T02030174  RH  083%=      5-min Rain = 0
KPD4 060706Z 05006KT 20/17 A3003 RMK A01 T02030174  RH  083%=      5-min Rain = 0
KPD4 060707Z 05006KT 20/17 A3003 RMK A01 T02030174  RH  083%=      5-min Rain = 0
KPD4 060708Z 05006KT 20/18 A3003 RMK A01 T02030175  RH  084%=      5-min Rain = 0
KPD4 060709Z 05006KT 20/17 A3003 RMK A01 T02030174  RH  083%=      5-min Rain = 0
KPD4 060710Z 05006KT 20/17 A3003 RMK A01 T02030174  RH  083%=      5-min Rain = 0
KPD4 060711Z 05006KT 20/17 A3003 RMK A01 T02030174  RH  083%=      5-min Rain = 0
KPD4 060712Z 05006KT 20/17 A3003 RMK A01 T02030174  RH  083%=      5-min Rain = 0
KPD4 060713Z 05006KT 20/17 A3003 RMK A01 T02020174  RH  084%=      5-min Rain = 0
KPD4 060714Z 05006KT 20/17 A3003 RMK A01 T02020174  RH  084%=      5-min Rain = 0
KPD4 060715Z 05006KT 20/17 A3003 RMK A01 T02020174  RH  084%=      5-min Rain = 0
KPD4 060716Z 04006KT 20/17 A3003 RMK A01 T02020174  RH  084%=      5-min Rain = 0
KPD4 060717Z 04005KT 20/17 A3003 RMK A01 T02020174  RH  084%=      5-min Rain = 0
KPD4 060718Z 05005KT 20/17 A3003 RMK A01 T02020174  RH  084%=      5-min Rain = 0
KPD4 060719Z 05005KT 20/17 A3003 RMK A01 T02020174  RH  084%=      5-min Rain = 0
KPD4 060720Z 04005KT 20/17 A3003 RMK A01 T02010174  RH  084%=      5-min Rain = 0
KPD4 060721Z 04005KT 20/17 A3003 RMK A01 T02010174  RH  084%=      5-min Rain = 0
KPD4 060722Z 04005KT 20/17 A3003 RMK A01 T02010174  RH  084%=      5-min Rain = 0
KPD4 060723Z 04005KT 20/17 A3003 RMK A01 T02010174  RH  084%=      5-min Rain = 0
KPD4 060724Z 04005KT 20/17 A3003 RMK A01 T02010174  RH  084%=      5-min Rain = 0
KPD4 060725Z 04005KT 20/17 A3003 RMK A01 T02010174  RH  084%=      5-min Rain = 0
KPD4 060726Z 04005KT 20/17 A3003 RMK A01 T02010174  RH  084%=      5-min Rain = 0
KPD4 060727Z 04005KT 20/17 A3003 RMK A01 T02000174  RH  085%=      5-min Rain = 0
KPD4 060728Z 04005KT 20/17 A3003 RMK A01 T02000174  RH  085%=      5-min Rain = 0
KPD4 060729Z 04005KT 20/17 A3003 RMK A01 T02000174  RH  085%=      5-min Rain = 0
KPD4 060730Z 04005KT 20/17 A3003 RMK A01 T02000174  RH  085%=      5-min Rain = 0
KPD4 060731Z 04005KT 20/17 A3003 RMK A01 T02000174  RH  085%=      5-min Rain = 0
KPD4 060732Z 04005KT 20/17 A3003 RMK A01 T02000174  RH  085%=      5-min Rain = 0
KPD4 060733Z 04004KT 20/17 A3003 RMK A01 T02000174  RH  085%=      5-min Rain = 0
KPD4 060734Z 04004KT 20/17 A3003 RMK A01 T02000174  RH  085%=      5-min Rain = 0
KPD4 060735Z 05004KT 20/17 A3003 RMK A01 T01990174  RH  085%=      5-min Rain = 0
KPD4 060736Z 04004KT 20/17 A3003 RMK A01 T01990173  RH  085%=      5-min Rain = 0
KPD4 060737Z 05004KT 20/17 A3002 RMK A01 T01980174  RH  086%=      5-min Rain = 0
KPD4 060738Z 05004KT 20/17 A3002 RMK A01 T01980173  RH  086%=      5-min Rain = 0
KPD4 060739Z 05005KT 20/17 A3002 RMK A01 T01980173  RH  086%=      5-min Rain = 0
KPD4 060740Z 05004KT 20/17 A3002 RMK A01 T01980173  RH  086%=      5-min Rain = 0
KPD4 060741Z 05005KT 20/17 A3002 RMK A01 T01980173  RH  085%=      5-min Rain = 0
KPD4 060742Z 05004KT 20/17 A3002 RMK A01 T01980173  RH  085%=      5-min Rain = 0
KPD4 060743Z 05004KT 20/17 A3002 RMK A01 T01980173  RH  085%=      5-min Rain = 0
KPD4 060744Z 05003KT 20/17 A3002 RMK A01 T01980172  RH  085%=      5-min Rain = 0
KPD4 060745Z 05004KT 20/17 A3002 RMK A01 T01970172  RH  085%=      5-min Rain = 0
KPD4 060746Z 05004KT 20/17 A3002 RMK A01 T01970172  RH  086%=      5-min Rain = 0
KPD4 060747Z 05004KT 20/17 A3002 RMK A01 T01960172  RH  086%=      5-min Rain = 0
KPD4 060748Z 05004KT 20/17 A3002 RMK A01 T01960172  RH  086%=      5-min Rain = 0
KPD4 060749Z 05003KT 20/17 A3002 RMK A01 T01960172  RH  086%=      5-min Rain = 0
KPD4 060750Z 04003KT 20/17 A3002 RMK A01 T01950172  RH  086%=      5-min Rain = 0
KPD4 060751Z 03003KT 20/17 A3002 RMK A01 T01950172  RH  086%=      5-min Rain = 0
KPD4 060752Z 03004KT 20/17 A3002 RMK A01 T01950172  RH  086%=      5-min Rain = 0
KPD4 060753Z 03004KT 20/17 A3002 RMK A01 T01950171  RH  086%=      5-min Rain = 0
KPD4 060754Z 03005KT 20/17 A3002 RMK A01 T01950171  RH  086%=      5-min Rain = 0
KPD4 060755Z 03005KT 20/17 A3002 RMK A01 T01950171  RH  086%=      5-min Rain = 0
KPD4 060756Z 03005KT 20/17 A3002 RMK A01 T01950172  RH  086%=      5-min Rain = 0
KPD4 060757Z 03005KT 20/17 A3002 RMK A01 T01950172  RH  086%=      5-min Rain = 0
KPD4 060758Z 03005KT 20/17 A3002 RMK A01 T01960172  RH  086%=      5-min Rain = 0
KPD4 060759Z 03005KT 20/17 A3002 RMK A01 T01960172  RH  086%=      5-min Rain = 0
KPD4 060800Z 03004KT 20/17 A3002 RMK A01 T01960171  RH  086%=      5-min Rain = 0
KPD4 060801Z 04004KT 20/17 A3002 RMK A01 T01960172  RH  086%=      5-min Rain = 0
KPD4 060802Z 04003KT 20/17 A3002 RMK A01 T01960171  RH  086%=      5-min Rain = 0
KPD4 060803Z 04003KT 20/17 A3002 RMK A01 T01950172  RH  086%=      5-min Rain = 0
KPD4 060804Z 04003KT 20/17 A3002 RMK A01 T01950172  RH  086%=      5-min Rain = 0
KPD4 060805Z 03002KT 20/17 A3002 RMK A01 T01950171  RH  086%=      5-min Rain = 0
KPD4 060806Z 03002KT 20/17 A3002 RMK A01 T01950171  RH  086%=      5-min Rain = 0
KPD4 060807Z 03003KT 20/17 A3002 RMK A01 T01950171  RH  086%=      5-min Rain = 0
KPD4 060808Z 04003KT 20/17 A3002 RMK A01 T01950171  RH  086%=      5-min Rain = 0
KPD4 060809Z 04004KT 20/17 A3002 RMK A01 T01950171  RH  086%=      5-min Rain = 0
KPD4 060810Z 04004KT 20/17 A3002 RMK A01 T01960171  RH  086%=      5-min Rain = 0
KPD4 060811Z 04004KT 20/17 A3002 RMK A01 T01960171  RH  085%=      5-min Rain = 0
KPD4 060812Z 04004KT 20/17 A3002 RMK A01 T01970171  RH  085%=      5-min Rain = 0
KPD4 060813Z 04004KT 20/17 A3002 RMK A01 T01960171  RH  085%=      5-min Rain = 0
KPD4 060814Z 04004KT 20/17 A3002 RMK A01 T01960171  RH  085%=      5-min Rain = 0
KPD4 060815Z 04003KT 20/17 A3002 RMK A01 T01960171  RH  086%=      5-min Rain = 0
KPD4 060816Z 04003KT 20/17 A3002 RMK A01 T01960171  RH  086%=      5-min Rain = 0
KPD4 060817Z 06003KT 20/17 A3002 RMK A01 T01960171  RH  086%=      5-min Rain = 0
KPD4 060818Z 07003KT 20/17 A3002 RMK A01 T01960171  RH  086%=      5-min Rain = 0
KPD4 060819Z 07004KT 20/17 A3002 RMK A01 T01970172  RH  085%=      5-min Rain = 0
KPD4 060820Z 07004KT 20/17 A3002 RMK A01 T01980171  RH  085%=      5-min Rain = 0
KPD4 060821Z 07004KT 20/17 A3002 RMK A01 T01990171  RH  084%=      5-min Rain = 0
KPD4 060822Z 07004KT 20/17 A3002 RMK A01 T01990171  RH  084%=      5-min Rain = 0
KPD4 060823Z 07003KT 20/17 A3002 RMK A01 T01990171  RH  084%=      5-min Rain = 0
KPD4 060824Z 07003KT 20/17 A3002 RMK A01 T01990171  RH  084%=      5-min Rain = 0
KPD4 060825Z 08003KT 20/17 A3002 RMK A01 T01990171  RH  084%=      5-min Rain = 0
KPD4 060826Z 08003KT 20/17 A3002 RMK A01 T01980171  RH  084%=      5-min Rain = 0
KPD4 060827Z 08003KT 20/17 A3002 RMK A01 T01980171  RH  085%=      5-min Rain = 0
KPD4 060828Z 08003KT 20/17 A3002 RMK A01 T01970170  RH  085%=      5-min Rain = 0
KPD4 060829Z 08002KT 20/17 A3002 RMK A01 T01970171  RH  085%=      5-min Rain = 0
KPD4 060830Z 08002KT 20/17 A3002 RMK A01 T01960170  RH  085%=      5-min Rain = 0
KPD4 060831Z 08002KT 20/17 A3003 RMK A01 T01960170  RH  085%=      5-min Rain = 0
KPD4 060832Z 08002KT 20/17 A3003 RMK A01 T01960170  RH  085%=      5-min Rain = 0
KPD4 060833Z 08002KT 20/17 A3003 RMK A01 T01970170  RH  084%=      5-min Rain = 0
KPD4 060834Z 08001KT 20/17 A3003 RMK A01 T01970170  RH  084%=      5-min Rain = 0
KPD4 060835Z 09002KT 20/17 A3003 RMK A01 T01970170  RH  084%=      5-min Rain = 0
KPD4 060836Z 10002KT 20/17 A3003 RMK A01 T01980170  RH  084%=      5-min Rain = 0
KPD4 060837Z 10002KT 20/17 A3003 RMK A01 T01980170  RH  084%=      5-min Rain = 0
KPD4 060838Z 10003KT 20/17 A3003 RMK A01 T01990170  RH  083%=      5-min Rain = 0
KPD4 060839Z 11003KT 20/17 A3003 RMK A01 T01990170  RH  083%=      5-min Rain = 0
KPD4 060840Z 11003KT 20/17 A3003 RMK A01 T01990170  RH  083%=      5-min Rain = 0
KPD4 060841Z 12003KT 20/17 A3003 RMK A01 T01990170  RH  083%=      5-min Rain = 0
KPD4 060842Z 13003KT 20/17 A3003 RMK A01 T01990170  RH  083%=      5-min Rain = 0
KPD4 060843Z 15003KT 20/17 A3003 RMK A01 T01990170  RH  083%=      5-min Rain = 0
KPD4 060844Z 16004KT 20/17 A3003 RMK A01 T01980169  RH  083%=      5-min Rain = 0
KPD4 060845Z 17004KT 20/17 A3003 RMK A01 T01960169  RH  084%=      5-min Rain = 0
KPD4 060846Z 17004KT 20/17 A3003 RMK A01 T01950170  RH  086%=      5-min Rain = 0
KPD4 060847Z 17004KT 19/17 A3003 RMK A01 T01940170  RH  086%=      5-min Rain = 0
KPD4 060848Z 17004KT 19/17 A3003 RMK A01 T01930170  RH  086%=      5-min Rain = 0
KPD4 060849Z 17003KT 19/17 A3003 RMK A01 T01920171  RH  087%=      5-min Rain = 0
KPD4 060850Z 17004KT 19/17 A3003 RMK A01 T01920171  RH  088%=      5-min Rain = 0
KPD4 060851Z 17003KT 19/17 A3003 RMK A01 T01920171  RH  088%=      5-min Rain = 0
KPD4 060852Z 18003KT 19/17 A3003 RMK A01 T01910171  RH  088%=      5-min Rain = 0
KPD4 060853Z 19003KT 19/17 A3003 RMK A01 T01910170  RH  088%=      5-min Rain = 0
KPD4 060854Z 20003KT 19/17 A3003 RMK A01 T01900169  RH  088%=      5-min Rain = 0
KPD4 060855Z 20003KT 19/17 A3003 RMK A01 T01890168  RH  088%=      5-min Rain = 0
KPD4 060856Z 20003KT 19/17 A3003 RMK A01 T01880167  RH  088%=      5-min Rain = 0
KPD4 060857Z 19003KT 19/17 A3003 RMK A01 T01880169  RH  089%=      5-min Rain = 0
KPD4 060858Z 19003KT 19/17 A3003 RMK A01 T01890169  RH  088%=      5-min Rain = 0
KPD4 060859Z 19003KT 19/17 A3003 RMK A01 T01900170  RH  088%=      5-min Rain = 0
KPD4 060900Z 19003KT 19/17 A3003 RMK A01 T01900169  RH  087%=      5-min Rain = 0
KPD4 060901Z 18003KT 19/17 A3003 RMK A01 T01900169  RH  087%=      5-min Rain = 0
KPD4 060902Z 18003KT 19/17 A3003 RMK A01 T01900169  RH  088%=      5-min Rain = 0
KPD4 060903Z 18003KT 19/17 A3003 RMK A01 T01890169  RH  088%=      5-min Rain = 0
KPD4 060904Z 18003KT 19/17 A3003 RMK A01 T01890169  RH  088%=      5-min Rain = 0
KPD4 060905Z 18003KT 19/17 A3003 RMK A01 T01890168  RH  088%=      5-min Rain = 0
KPD4 060906Z 19003KT 19/17 A3003 RMK A01 T01890168  RH  088%=      5-min Rain = 0
KPD4 060907Z 19003KT 19/17 A3003 RMK A01 T01890169  RH  088%=      5-min Rain = 0
KPD4 060908Z 19003KT 19/17 A3003 RMK A01 T01890168  RH  088%=      5-min Rain = 0
KPD4 060909Z 20003KT 19/17 A3003 RMK A01 T01880169  RH  088%=      5-min Rain = 0
KPD4 060910Z 21003KT 19/17 A3003 RMK A01 T01890169  RH  088%=      5-min Rain = 0
KPD4 060911Z 21003KT 19/17 A3003 RMK A01 T01900169  RH  088%=      5-min Rain = 0
KPD4 060912Z 21003KT 19/17 A3003 RMK A01 T01890168  RH  088%=      5-min Rain = 0
KPD4 060913Z 21003KT 19/17 A3003 RMK A01 T01890168  RH  088%=      5-min Rain = 0
KPD4 060914Z 21004KT 19/17 A3003 RMK A01 T01890168  RH  088%=      5-min Rain = 0
KPD4 060915Z 21004KT 19/17 A3003 RMK A01 T01890168  RH  087%=      5-min Rain = 0
KPD4 060916Z 21004KT 19/17 A3003 RMK A01 T01890167  RH  087%=      5-min Rain = 0
KPD4 060917Z 22004KT 19/17 A3003 RMK A01 T01890166  RH  087%=      5-min Rain = 0
KPD4 060918Z 22004KT 19/17 A3003 RMK A01 T01880166  RH  087%=      5-min Rain = 0
KPD4 060919Z 21003KT 19/17 A3003 RMK A01 T01870166  RH  087%=      5-min Rain = 0
KPD4 060920Z 20003KT 19/17 A3003 RMK A01 T01870166  RH  087%=      5-min Rain = 0
KPD4 060921Z 21003KT 19/17 A3003 RMK A01 T01870166  RH  087%=      5-min Rain = 0
KPD4 060922Z 20003KT 19/17 A3003 RMK A01 T01880166  RH  087%=      5-min Rain = 0
KPD4 060923Z 19002KT 19/17 A3003 RMK A01 T01890167  RH  087%=      5-min Rain = 0
KPD4 060924Z 18003KT 19/17 A3003 RMK A01 T01900167  RH  087%=      5-min Rain = 0
KPD4 060925Z 18003KT 19/17 A3003 RMK A01 T01910168  RH  086%=      5-min Rain = 0
KPD4 060926Z 17003KT 19/17 A3003 RMK A01 T01930168  RH  086%=      5-min Rain = 0
KPD4 060927Z 17003KT 19/17 A3003 RMK A01 T01940168  RH  085%=      5-min Rain = 0
KPD4 060928Z 17003KT 20/17 A3003 RMK A01 T01950168  RH  084%=      5-min Rain = 0
KPD4 060929Z 16003KT 20/17 A3003 RMK A01 T01960168  RH  084%=      5-min Rain = 0
KPD4 060930Z 15003KT 20/17 A3003 RMK A01 T01960168  RH  084%=      5-min Rain = 0
KPD4 060931Z 15003KT 20/17 A3003 RMK A01 T01970168  RH  083%=      5-min Rain = 0
KPD4 060932Z 14003KT 20/17 A3003 RMK A01 T01970167  RH  083%=      5-min Rain = 0
KPD4 060933Z 14003KT 20/17 A3003 RMK A01 T01980167  RH  082%=      5-min Rain = 0
KPD4 060934Z 14003KT 20/17 A3003 RMK A01 T01980167  RH  082%=      5-min Rain = 0
KPD4 060935Z 14003KT 20/17 A3003 RMK A01 T01980167  RH  082%=      5-min Rain = 0
KPD4 060936Z 16002KT 20/17 A3003 RMK A01 T01970167  RH  083%=      5-min Rain = 0
KPD4 060937Z 16002KT 20/17 A3003 RMK A01 T01960166  RH  083%=      5-min Rain = 0
KPD4 060938Z 18002KT 20/17 A3003 RMK A01 T01950166  RH  083%=      5-min Rain = 0
KPD4 060939Z 18002KT 20/17 A3003 RMK A01 T01950166  RH  084%=      5-min Rain = 0
KPD4 060940Z 19002KT 20/17 A3003 RMK A01 T01950167  RH  084%=      5-min Rain = 0
KPD4 060941Z 19002KT 20/17 A3003 RMK A01 T01950167  RH  084%=      5-min Rain = 0
KPD4 060942Z 18002KT 20/17 A3003 RMK A01 T01950167  RH  084%=      5-min Rain = 0
KPD4 060943Z 17002KT 20/17 A3003 RMK A01 T01950167  RH  084%=      5-min Rain = 0
KPD4 060944Z 16002KT 20/17 A3003 RMK A01 T01950167  RH  084%=      5-min Rain = 0
KPD4 060945Z 17002KT 20/17 A3003 RMK A01 T01960168  RH  084%=      5-min Rain = 0
KPD4 060946Z 16002KT 20/17 A3003 RMK A01 T01960167  RH  084%=      5-min Rain = 0
KPD4 060947Z 17002KT 20/17 A3003 RMK A01 T01960167  RH  083%=      5-min Rain = 0
KPD4 060948Z 18002KT 20/17 A3004 RMK A01 T01950167  RH  084%=      5-min Rain = 0
KPD4 060949Z 18002KT 20/17 A3004 RMK A01 T01950167  RH  084%=      5-min Rain = 0
KPD4 060950Z 19001KT 19/17 A3004 RMK A01 T01940166  RH  084%=      5-min Rain = 0
KPD4 060951Z 20001KT 19/17 A3004 RMK A01 T01940167  RH  084%=      5-min Rain = 0
KPD4 060952Z 20001KT 19/16 A3004 RMK A01 T01920161  RH  082%=      5-min Rain = 0
KPD4 060953Z 20001KT 19/16 A3004 RMK A01 T01870158  RH  084%=      5-min Rain = 0
KPD4 060954Z 22001KT 18/16 A3004 RMK A01 T01830158  RH  085%=      5-min Rain = 0
KPD4 060955Z 25001KT 18/16 A3003 RMK A01 T01800158  RH  087%=      5-min Rain = 0
KPD4 060956Z 26001KT 18/16 A3003 RMK A01 T01770158  RH  088%=      5-min Rain = 0
KPD4 060957Z 25001KT 18/16 A3003 RMK A01 T01750158  RH  090%=      5-min Rain = 0
KPD4 060958Z 24001KT 17/16 A3004 RMK A01 T01730158  RH  091%=      5-min Rain = 0
KPD4 060959Z 23002KT 17/16 A3004 RMK A01 T01720159  RH  092%=      5-min Rain = 0
KPD4 061000Z 23002KT 17/16 A3004 RMK A01 T01720160  RH  093%=      5-min Rain = 0
KPD4 061001Z 24001KT 17/16 A3004 RMK A01 T01720160  RH  093%=      5-min Rain = 0
KPD4 061002Z 23001KT 17/16 A3004 RMK A01 T01720160  RH  093%=      5-min Rain = 0
KPD4 061003Z 25001KT 17/16 A3004 RMK A01 T01720161  RH  094%=      5-min Rain = 0
KPD4 061004Z 25001KT 17/16 A3004 RMK A01 T01720162  RH  094%=      5-min Rain = 0
KPD4 061005Z 25001KT 17/16 A3004 RMK A01 T01720162  RH  093%=      5-min Rain = 0
KPD4 061006Z 25002KT 17/16 A3004 RMK A01 T01720161  RH  093%=      5-min Rain = 0
KPD4 061007Z 25002KT 17/16 A3004 RMK A01 T01720161  RH  093%=      5-min Rain = 0
KPD4 061008Z 25003KT 17/16 A3004 RMK A01 T01720161  RH  093%=      5-min Rain = 0
KPD4 061009Z 24003KT 17/16 A3004 RMK A01 T01720161  RH  093%=      5-min Rain = 0
KPD4 061010Z 25003KT 17/16 A3004 RMK A01 T01720161  RH  094%=      5-min Rain = 0
KPD4 061011Z 25003KT 17/16 A3004 RMK A01 T01710161  RH  094%=      5-min Rain = 0
KPD4 061012Z 26003KT 17/16 A3004 RMK A01 T01710161  RH  094%=      5-min Rain = 0
KPD4 061013Z 27003KT 17/16 A3004 RMK A01 T01710161  RH  094%=      5-min Rain = 0
KPD4 061014Z 27002KT 17/16 A3004 RMK A01 T01710161  RH  094%=      5-min Rain = 0
KPD4 061015Z 28002KT 17/16 A3004 RMK A01 T01710160  RH  094%=      5-min Rain = 0
KPD4 061016Z 28003KT 17/16 A3004 RMK A01 T01700160  RH  094%=      5-min Rain = 0
KPD4 061017Z 29004KT 17/16 A3004 RMK A01 T01700160  RH  094%=      5-min Rain = 0
KPD4 061018Z 29005KT 17/16 A3004 RMK A01 T01690160  RH  094%=      5-min Rain = 0
KPD4 061019Z 29005KT 17/16 A3004 RMK A01 T01690160  RH  094%=      5-min Rain = 0
KPD4 061020Z 29005KT 17/16 A3004 RMK A01 T01690160  RH  095%=      5-min Rain = 0
KPD4 061021Z 29005KT 17/16 A3004 RMK A01 T01690160  RH  095%=      5-min Rain = 0
KPD4 061022Z 29005KT 17/16 A3004 RMK A01 T01690161  RH  095%=      5-min Rain = 0
KPD4 061023Z 28005KT 17/16 A3004 RMK A01 T01690161  RH  095%=      5-min Rain = 0
KPD4 061024Z 28005KT 17/16 A3004 RMK A01 T01690161  RH  095%=      5-min Rain = 0
KPD4 061025Z 28005KT 17/16 A3004 RMK A01 T01690161  RH  095%=      5-min Rain = 0
KPD4 061026Z 28005KT 17/16 A3004 RMK A01 T01690161  RH  095%=      5-min Rain = 0
KPD4 061027Z 28006KT 17/16 A3004 RMK A01 T01690161  RH  095%=      5-min Rain = 0
KPD4 061028Z 28006KT 17/16 A3004 RMK A01 T01690160  RH  095%=      5-min Rain = 0
KPD4 061029Z 28005KT 17/16 A3004 RMK A01 T01690160  RH  095%=      5-min Rain = 0
KPD4 061030Z 28005KT 17/16 A3004 RMK A01 T01680160  RH  095%=      5-min Rain = 0
KPD4 061031Z 28005KT 17/16 A3004 RMK A01 T01680160  RH  095%=      5-min Rain = 0
KPD4 061032Z 29006KT 17/16 A3004 RMK A01 T01680160  RH  095%=      5-min Rain = 0
KPD4 061033Z 30006KT 17/16 A3004 RMK A01 T01680159  RH  095%=      5-min Rain = 0
KPD4 061034Z 31006KT 17/16 A3004 RMK A01 T01670158  RH  095%=      5-min Rain = 0
KPD4 061035Z 31007KT 17/16 A3004 RMK A01 T01660158  RH  095%=      5-min Rain = 0
KPD4 061036Z 32007KT 17/16 A3004 RMK A01 T01660158  RH  095%=      5-min Rain = 0
KPD4 061037Z 33008KT 17/16 A3004 RMK A01 T01660158  RH  095%=      5-min Rain = 0
KPD4 061038Z 33008KT 17/16 A3004 RMK A01 T01660159  RH  095%=      5-min Rain = 0
KPD4 061039Z 33008KT 17/16 A3004 RMK A01 T01660159  RH  096%=      5-min Rain = 0
KPD4 061040Z 33007KT 17/16 A3004 RMK A01 T01660159  RH  096%=      5-min Rain = 0
KPD4 061041Z 33007KT 17/16 A3004 RMK A01 T01660159  RH  096%=      5-min Rain = 0
KPD4 061042Z 33007KT 17/16 A3004 RMK A01 T01660159  RH  095%=      5-min Rain = 0
KPD4 061043Z 32006KT 17/16 A3004 RMK A01 T01660158  RH  095%=      5-min Rain = 0
KPD4 061044Z 32006KT 17/16 A3004 RMK A01 T01660159  RH  096%=      5-min Rain = 0
KPD4 061045Z 32006KT 17/16 A3004 RMK A01 T01660158  RH  095%=      5-min Rain = 0
KPD4 061046Z 32005KT 17/16 A3004 RMK A01 T01660158  RH  095%=      5-min Rain = 0
KPD4 061047Z 32005KT 17/16 A3004 RMK A01 T01660158  RH  095%=      5-min Rain = 0
KPD4 061048Z 33006KT 17/16 A3004 RMK A01 T01660158  RH  095%=      5-min Rain = 0
KPD4 061049Z 33006KT 17/16 A3004 RMK A01 T01660158  RH  095%=      5-min Rain = 0
KPD4 061050Z 34007KT 17/16 A3004 RMK A01 T01660158  RH  095%=      5-min Rain = 0
KPD4 061051Z 34008KT 17/16 A3004 RMK A01 T01660158  RH  095%=      5-min Rain = 0
KPD4 061052Z 35008KT 17/16 A3004 RMK A01 T01660158  RH  095%=      5-min Rain = 0
KPD4 061053Z 35008KT 17/16 A3004 RMK A01 T01660158  RH  095%=      5-min Rain = 0
KPD4 061054Z 35008KT 17/16 A3004 RMK A01 T01660158  RH  095%=      5-min Rain = 0
KPD4 061055Z 00008KT 17/16 A3004 RMK A01 T01660158  RH  095%=      5-min Rain = 0
KPD4 061056Z 36007KT 17/16 A3004 RMK A01 T01660158  RH  095%=      5-min Rain = 0
KPD4 061057Z 35006KT 17/16 A3004 RMK A01 T01670159  RH  095%=      5-min Rain = 0
KPD4 061058Z 35006KT 17/16 A3004 RMK A01 T01670158  RH  095%=      5-min Rain = 0
KPD4 061059Z 35005KT 17/16 A3004 RMK A01 T01660158  RH  095%=      5-min Rain = 0
KPD4 061100Z 34005KT 17/16 A3004 RMK A01 T01670159  RH  095%=      5-min Rain = 0
KPD4 061101Z 34004KT 17/16 A3004 RMK A01 T01680159  RH  095%=      5-min Rain = 0
KPD4 061102Z 34004KT 17/16 A3004 RMK A01 T01680159  RH  095%=      5-min Rain = 0
KPD4 061103Z 33004KT 17/16 A3004 RMK A01 T01680159  RH  094%=      5-min Rain = 0
KPD4 061104Z 33004KT 17/16 A3004 RMK A01 T01680159  RH  094%=      5-min Rain = 0
KPD4 061105Z 33004KT 17/16 A3004 RMK A01 T01680158  RH  094%=      5-min Rain = 0
KPD4 061106Z 34004KT 17/16 A3004 RMK A01 T01680158  RH  094%=      5-min Rain = 0
KPD4 061107Z 34004KT 17/16 A3005 RMK A01 T01680158  RH  094%=      5-min Rain = 0
KPD4 061108Z 34004KT 17/16 A3005 RMK A01 T01670158  RH  094%=      5-min Rain = 0
KPD4 061109Z 34004KT 17/16 A3005 RMK A01 T01670158  RH  094%=      5-min Rain = 0
KPD4 061110Z 34005KT 17/16 A3005 RMK A01 T01670158  RH  094%=      5-min Rain = 0
KPD4 061111Z 35004KT 17/16 A3005 RMK A01 T01670158  RH  094%=      5-min Rain = 0
KPD4 061112Z 35004KT 17/16 A3005 RMK A01 T01680159  RH  095%=      5-min Rain = 0
KPD4 061113Z 35005KT 17/16 A3004 RMK A01 T01680159  RH  094%=      5-min Rain = 0
KPD4 061114Z 35005KT 17/16 A3004 RMK A01 T01670158  RH  094%=      5-min Rain = 0
KPD4 061115Z 35004KT 17/16 A3004 RMK A01 T01670159  RH  095%=      5-min Rain = 0
KPD4 061116Z 35004KT 17/16 A3004 RMK A01 T01690160  RH  095%=      5-min Rain = 0
KPD4 061117Z 35004KT 17/16 A3004 RMK A01 T01680159  RH  094%=      5-min Rain = 0
KPD4 061118Z 35004KT 17/16 A3004 RMK A01 T01680158  RH  094%=      5-min Rain = 0
KPD4 061119Z 35004KT 17/16 A3004 RMK A01 T01680159  RH  095%=      5-min Rain = 0
KPD4 061120Z 35003KT 17/16 A3004 RMK A01 T01680160  RH  095%=      5-min Rain = 0
KPD4 061121Z 35003KT 17/16 A3004 RMK A01 T01690161  RH  095%=      5-min Rain = 0
KPD4 061122Z 36003KT 17/16 A3004 RMK A01 T01700161  RH  095%=      5-min Rain = 0
KPD4 061123Z 00002KT 17/16 A3004 RMK A01 T01700162  RH  095%=      5-min Rain = 0
KPD4 061124Z 00002KT 17/16 A3004 RMK A01 T01710162  RH  094%=      5-min Rain = 0
KPD4 061125Z 00002KT 17/16 A3005 RMK A01 T01710161  RH  094%=      5-min Rain = 0
KPD4 061126Z 00002KT 17/16 A3005 RMK A01 T01700161  RH  094%=      5-min Rain = 0
KPD4 061127Z 00001KT 17/16 A3005 RMK A01 T01710161  RH  094%=      5-min Rain = 0
KPD4 061128Z 00001KT 17/16 A3005 RMK A01 T01710161  RH  094%=      5-min Rain = 0
KPD4 061129Z 00001KT 17/16 A3005 RMK A01 T01710161  RH  094%=      5-min Rain = 0
KPD4 061130Z 00001KT 17/16 A3005 RMK A01 T01720163  RH  095%=      5-min Rain = 0
KPD4 061131Z 00001KT 17/16 A3005 RMK A01 T01720163  RH  094%=      5-min Rain = 0
KPD4 061132Z 00001KT 17/16 A3005 RMK A01 T01710158  RH  092%=      5-min Rain = 0
KPD4 061133Z 33002KT 17/16 A3005 RMK A01 T01690156  RH  092%=      5-min Rain = 0
KPD4 061134Z 32003KT 17/16 A3005 RMK A01 T01680155  RH  092%=      5-min Rain = 0
KPD4 061135Z 32003KT 17/16 A3005 RMK A01 T01670155  RH  093%=      5-min Rain = 0
KPD4 061136Z 32003KT 17/16 A3005 RMK A01 T01660156  RH  094%=      5-min Rain = 0
KPD4 061137Z 32004KT 17/16 A3005 RMK A01 T01660157  RH  094%=      5-min Rain = 0
KPD4 061138Z 33004KT 17/16 A3005 RMK A01 T01660157  RH  095%=      5-min Rain = 0
KPD4 061139Z 33004KT 17/16 A3005 RMK A01 T01660157  RH  095%=      5-min Rain = 0
KPD4 061140Z 33004KT 17/16 A3005 RMK A01 T01660157  RH  095%=      5-min Rain = 0
KPD4 061141Z 33004KT 17/16 A3006 RMK A01 T01660157  RH  095%=      5-min Rain = 0
KPD4 061142Z 33004KT 17/16 A3006 RMK A01 T01650157  RH  095%=      5-min Rain = 0
KPD4 061143Z 33004KT 17/16 A3006 RMK A01 T01660158  RH  095%=      5-min Rain = 0
KPD4 061144Z 33004KT 17/16 A3006 RMK A01 T01650157  RH  095%=      5-min Rain = 0
KPD4 061145Z 33004KT 17/16 A3006 RMK A01 T01660157  RH  095%=      5-min Rain = 0
KPD4 061146Z 33004KT 17/16 A3006 RMK A01 T01660157  RH  095%=      5-min Rain = 0
KPD4 061147Z 33005KT 17/16 A3006 RMK A01 T01650157  RH  095%=      5-min Rain = 0
KPD4 061148Z 33005KT 17/16 A3006 RMK A01 T01650157  RH  095%=      5-min Rain = 0
KPD4 061149Z 33006KT 17/16 A3006 RMK A01 T01650157  RH  095%=      5-min Rain = 0
KPD4 061150Z 32006KT 17/16 A3006 RMK A01 T01650157  RH  095%=      5-min Rain = 0
KPD4 061151Z 32007KT 17/16 A3006 RMK A01 T01650157  RH  095%=      5-min Rain = 0
KPD4 061152Z 31007KT 17/16 A3006 RMK A01 T01650157  RH  095%=      5-min Rain = 0
KPD4 061153Z 31008KT 17/16 A3006 RMK A01 T01650157  RH  095%=      5-min Rain = 0
KPD4 061154Z 31009KT 17/16 A3006 RMK A01 T01650157  RH  095%=      5-min Rain = 0
KPD4 061155Z 31008KT 17/16 A3006 RMK A01 T01660158  RH  095%=      5-min Rain = 0
KPD4 061156Z 31008KT 17/16 A3006 RMK A01 T01660158  RH  095%=      5-min Rain = 0
KPD4 061157Z 31008KT 17/16 A3006 RMK A01 T01660158  RH  095%=      5-min Rain = 0
KPD4 061158Z 32007KT 17/16 A3006 RMK A01 T01670159  RH  095%=      5-min Rain = 0
KPD4 061159Z 32007KT 17/16 A3006 RMK A01 T01670159  RH  095%=      5-min Rain = 0
KPD4 061200Z 32007KT 17/16 A3006 RMK A01 T01670159  RH  095%=      5-min Rain = 0
KPD4 061201Z 32007KT 17/16 A3006 RMK A01 T01670159  RH  095%=      5-min Rain = 0
KPD4 061202Z 32007KT 17/16 A3006 RMK A01 T01670159  RH  095%=      5-min Rain = 0
KPD4 061203Z 32007KT 17/16 A3006 RMK A01 T01680159  RH  095%=      5-min Rain = 0
KPD4 061204Z 32007KT 17/16 A3006 RMK A01 T01680159  RH  095%=      5-min Rain = 0
KPD4 061205Z 31007KT 17/16 A3006 RMK A01 T01680159  RH  095%=      5-min Rain = 0
KPD4 061206Z 31006KT 17/16 A3006 RMK A01 T01680160  RH  095%=      5-min Rain = 0
KPD4 061207Z 31006KT 17/16 A3006 RMK A01 T01690160  RH  095%=      5-min Rain = 0
KPD4 061208Z 31006KT 17/16 A3006 RMK A01 T01690161  RH  095%=      5-min Rain = 0
KPD4 061209Z 31006KT 17/16 A3006 RMK A01 T01700161  RH  095%=      5-min Rain = 0
KPD4 061210Z 31005KT 17/16 A3006 RMK A01 T01700161  RH  095%=      5-min Rain = 0
KPD4 061211Z 31005KT 17/16 A3006 RMK A01 T01700161  RH  095%=      5-min Rain = 0
KPD4 061212Z 30005KT 17/16 A3006 RMK A01 T01710162  RH  095%=      5-min Rain = 0
KPD4 061213Z 31005KT 17/16 A3006 RMK A01 T01710163  RH  095%=      5-min Rain = 0
KPD4 061214Z 31004KT 17/16 A3006 RMK A01 T01720163  RH  095%=      5-min Rain = 0
KPD4 061215Z 31004KT 17/16 A3006 RMK A01 T01730164  RH  095%=      5-min Rain = 0
KPD4 061216Z 31004KT 17/16 A3006 RMK A01 T01730164  RH  095%=      5-min Rain = 0
KPD4 061217Z 31004KT 17/17 A3006 RMK A01 T01740165  RH  095%=      5-min Rain = 0
KPD4 061218Z 31004KT 17/17 A3006 RMK A01 T01740165  RH  094%=      5-min Rain = 0
KPD4 061219Z 32004KT 18/17 A3006 RMK A01 T01750166  RH  094%=      5-min Rain = 0
KPD4 061220Z 32004KT 18/17 A3006 RMK A01 T01760166  RH  094%=      5-min Rain = 0
KPD4 061221Z 32004KT 18/17 A3006 RMK A01 T01760167  RH  094%=      5-min Rain = 0
KPD4 061222Z 32004KT 18/17 A3007 RMK A01 T01770167  RH  094%=      5-min Rain = 0
KPD4 061223Z 31004KT 18/17 A3007 RMK A01 T01780168  RH  094%=      5-min Rain = 0
KPD4 061224Z 31003KT 18/17 A3007 RMK A01 T01790168  RH  094%=      5-min Rain = 0
KPD4 061225Z 31004KT 18/17 A3007 RMK A01 T01800169  RH  093%=      5-min Rain = 0
KPD4 061226Z 31003KT 18/17 A3007 RMK A01 T01800169  RH  093%=      5-min Rain = 0
KPD4 061227Z 31003KT 18/17 A3007 RMK A01 T01810169  RH  093%=      5-min Rain = 0
KPD4 061228Z 32003KT 18/17 A3007 RMK A01 T01820170  RH  093%=      5-min Rain = 0
KPD4 061229Z 31003KT 18/17 A3007 RMK A01 T01820170  RH  093%=      5-min Rain = 0
KPD4 061230Z 31003KT 18/17 A3007 RMK A01 T01830171  RH  092%=      5-min Rain = 0
KPD4 061231Z 31003KT 18/17 A3007 RMK A01 T01840171  RH  092%=      5-min Rain = 0
KPD4 061232Z 31004KT 18/17 A3007 RMK A01 T01840171  RH  092%=      5-min Rain = 0
KPD4 061233Z 31004KT 19/17 A3007 RMK A01 T01850172  RH  092%=      5-min Rain = 0
KPD4 061234Z 31005KT 19/17 A3007 RMK A01 T01850172  RH  092%=      5-min Rain = 0
KPD4 061235Z 31004KT 19/17 A3007 RMK A01 T01850172  RH  092%=      5-min Rain = 0
KPD4 061236Z 31005KT 19/17 A3007 RMK A01 T01860173  RH  092%=      5-min Rain = 0
KPD4 061237Z 31004KT 19/17 A3007 RMK A01 T01870173  RH  092%=      5-min Rain = 0
KPD4 061238Z 30004KT 19/17 A3007 RMK A01 T01870174  RH  092%=      5-min Rain = 0
KPD4 061239Z 30004KT 19/17 A3007 RMK A01 T01880173  RH  091%=      5-min Rain = 0
KPD4 061240Z 30003KT 19/17 A3007 RMK A01 T01880174  RH  091%=      5-min Rain = 0
KPD4 061241Z 30004KT 19/17 A3007 RMK A01 T01890174  RH  091%=      5-min Rain = 0
KPD4 061242Z 31004KT 19/17 A3007 RMK A01 T01890174  RH  091%=      5-min Rain = 0
KPD4 061243Z 31003KT 19/17 A3007 RMK A01 T01900173  RH  090%=      5-min Rain = 0
KPD4 061244Z 32004KT 19/18 A3007 RMK A01 T01910175  RH  090%=      5-min Rain = 0
KPD4 061245Z 32004KT 19/17 A3007 RMK A01 T01910174  RH  090%=      5-min Rain = 0
KPD4 061246Z 32004KT 19/18 A3007 RMK A01 T01920175  RH  090%=      5-min Rain = 0
KPD4 061247Z 31003KT 19/17 A3007 RMK A01 T01920174  RH  089%=      5-min Rain = 0
KPD4 061248Z 32004KT 19/18 A3007 RMK A01 T01930175  RH  090%=      5-min Rain = 0
KPD4 061249Z 32003KT 19/18 A3007 RMK A01 T01930175  RH  089%=      5-min Rain = 0
KPD4 061250Z 31003KT 19/18 A3007 RMK A01 T01940176  RH  089%=      5-min Rain = 0
KPD4 061251Z 32003KT 19/18 A3007 RMK A01 T01940176  RH  089%=      5-min Rain = 0
KPD4 061252Z 32005KT 20/18 A3007 RMK A01 T01950175  RH  088%=      5-min Rain = 0
KPD4 061253Z 31005KT 20/18 A3007 RMK A01 T01950175  RH  088%=      5-min Rain = 0
KPD4 061254Z 31005KT 20/18 A3007 RMK A01 T01950175  RH  088%=      5-min Rain = 0
KPD4 061255Z 31005KT 20/18 A3008 RMK A01 T01960176  RH  089%=      5-min Rain = 0
KPD4 061256Z 31006KT 20/18 A3008 RMK A01 T01960175  RH  088%=      5-min Rain = 0
KPD4 061257Z 31004KT 20/18 A3008 RMK A01 T01960176  RH  088%=      5-min Rain = 0
KPD4 061258Z 31004KT 20/18 A3008 RMK A01 T01960176  RH  088%=      5-min Rain = 0
KPD4 061259Z 31003KT 20/18 A3008 RMK A01 T01970178  RH  089%=      5-min Rain = 0
KPD4 061300Z 31004KT 20/18 A3008 RMK A01 T01980178  RH  089%=      5-min Rain = 0
KPD4 061301Z 31005KT 20/18 A3008 RMK A01 T01980177  RH  088%=      5-min Rain = 0
KPD4 061302Z 31005KT 20/18 A3008 RMK A01 T01980177  RH  087%=      5-min Rain = 0
KPD4 061303Z 32005KT 20/18 A3008 RMK A01 T01980176  RH  087%=      5-min Rain = 0
KPD4 061304Z 33004KT 20/18 A3008 RMK A01 T01990178  RH  088%=      5-min Rain = 0
KPD4 061305Z 32004KT 20/18 A3008 RMK A01 T02000178  RH  087%=      5-min Rain = 0
KPD4 061306Z 32004KT 20/18 A3008 RMK A01 T02000178  RH  087%=      5-min Rain = 0
KPD4 061307Z 32004KT 20/18 A3008 RMK A01 T02010179  RH  087%=      5-min Rain = 0
KPD4 061308Z 32004KT 20/18 A3008 RMK A01 T02010178  RH  086%=      5-min Rain = 0
KPD4 061309Z 32003KT 20/18 A3008 RMK A01 T02020178  RH  086%=      5-min Rain = 0
KPD4 061310Z 33002KT 20/18 A3008 RMK A01 T02020179  RH  087%=      5-min Rain = 0
KPD4 061311Z 32002KT 20/18 A3008 RMK A01 T02030181  RH  087%=      5-min Rain = 0
KPD4 061312Z 32002KT 20/18 A3008 RMK A01 T02040181  RH  086%=      5-min Rain = 0
KPD4 061313Z 32002KT 21/18 A3008 RMK A01 T02050181  RH  086%=      5-min Rain = 0
KPD4 061314Z 33002KT 21/18 A3008 RMK A01 T02060180  RH  085%=      5-min Rain = 0
KPD4 061315Z 32001KT 21/18 A3008 RMK A01 T02060180  RH  085%=      5-min Rain = 0
KPD4 061316Z 33001KT 21/18 A3008 RMK A01 T02060180  RH  085%=      5-min Rain = 0
KPD4 061317Z 31002KT 21/18 A3008 RMK A01 T02070181  RH  085%=      5-min Rain = 0
KPD4 061318Z 30001KT 21/18 A3008 RMK A01 T02080181  RH  085%=      5-min Rain = 0
KPD4 061319Z 32002KT 21/18 A3008 RMK A01 T02080182  RH  085%=      5-min Rain = 0
KPD4 061320Z 33002KT 21/18 A3008 RMK A01 T02090182  RH  085%=      5-min Rain = 0
KPD4 061321Z 34002KT 21/18 A3008 RMK A01 T02100182  RH  084%=      5-min Rain = 0
KPD4 061322Z 34003KT 21/18 A3008 RMK A01 T02100182  RH  084%=      5-min Rain = 0
KPD4 061323Z 33003KT 21/18 A3008 RMK A01 T02110181  RH  083%=      5-min Rain = 0
KPD4 061324Z 33003KT 21/18 A3008 RMK A01 T02120184  RH  084%=      5-min Rain = 0
KPD4 061325Z 34002KT 21/18 A3008 RMK A01 T02130183  RH  083%=      5-min Rain = 0
KPD4 061326Z 33002KT 21/19 A3008 RMK A01 T02140185  RH  084%=      5-min Rain = 0
KPD4 061327Z 33003KT 22/18 A3008 RMK A01 T02150184  RH  082%=      5-min Rain = 0
KPD4 061328Z 33003KT 22/18 A3009 RMK A01 T02160182  RH  081%=      5-min Rain = 0
KPD4 061329Z 33003KT 22/18 A3009 RMK A01 T02160183  RH  082%=      5-min Rain = 0
KPD4 061330Z 34003KT 22/18 A3009 RMK A01 T02160183  RH  082%=      5-min Rain = 0
KPD4 061331Z 34003KT 22/18 A3009 RMK A01 T02160184  RH  082%=      5-min Rain = 0
KPD4 061332Z 34002KT 22/18 A3009 RMK A01 T02170183  RH  081%=      5-min Rain = 0
KPD4 061333Z 34002KT 22/18 A3009 RMK A01 T02170183  RH  081%=      5-min Rain = 0
KPD4 061334Z 33003KT 22/19 A3009 RMK A01 T02180185  RH  082%=      5-min Rain = 0
KPD4 061335Z 33003KT 22/18 A3009 RMK A01 T02180183  RH  080%=      5-min Rain = 0
KPD4 061336Z 32003KT 22/18 A3009 RMK A01 T02180184  RH  081%=      5-min Rain = 0
KPD4 061337Z 33003KT 22/18 A3009 RMK A01 T02190184  RH  081%=      5-min Rain = 0
KPD4 061338Z 33003KT 22/19 A3009 RMK A01 T02200185  RH  081%=      5-min Rain = 0
KPD4 061339Z 35004KT 22/18 A3009 RMK A01 T02200184  RH  080%=      5-min Rain = 0
KPD4 061340Z 34003KT 22/18 A3009 RMK A01 T02200183  RH  080%=      5-min Rain = 0
KPD4 061341Z 32004KT 22/19 A3009 RMK A01 T02210185  RH  080%=      5-min Rain = 0
KPD4 061342Z 34004KT 22/18 A3009 RMK A01 T02210184  RH  079%=      5-min Rain = 0
KPD4 061343Z 34005KT 22/18 A3009 RMK A01 T02220184  RH  079%=      5-min Rain = 0
KPD4 061344Z 32005KT 22/18 A3009 RMK A01 T02230184  RH  079%=      5-min Rain = 0
KPD4 061345Z 32005KT 22/19 A3009 RMK A01 T02230185  RH  079%=      5-min Rain = 0
KPD4 061346Z 33004KT 22/19 A3009 RMK A01 T02230186  RH  079%=      5-min Rain = 0
KPD4 061347Z 32005KT 22/19 A3009 RMK A01 T02240185  RH  079%=      5-min Rain = 0
KPD4 061348Z 31004KT 23/19 A3009 RMK A01 T02250186  RH  079%=      5-min Rain = 0
KPD4 061349Z 33005KT 23/19 A3009 RMK A01 T02260186  RH  078%=      5-min Rain = 0
KPD4 061350Z 33005KT 23/19 A3009 RMK A01 T02260186  RH  078%=      5-min Rain = 0
KPD4 061351Z 33004KT 23/19 A3009 RMK A01 T02260185  RH  077%=      5-min Rain = 0
KPD4 061352Z 32005KT 23/19 A3009 RMK A01 T02260187  RH  078%=      5-min Rain = 0
KPD4 061353Z 34004KT 23/19 A3009 RMK A01 T02270186  RH  078%=      5-min Rain = 0
KPD4 061354Z 33003KT 23/19 A3009 RMK A01 T02270185  RH  077%=      5-min Rain = 0
KPD4 061355Z 34003KT 23/19 A3009 RMK A01 T02260187  RH  079%=      5-min Rain = 0
KPD4 061356Z 32003KT 23/19 A3009 RMK A01 T02290188  RH  078%=      5-min Rain = 0
KPD4 061357Z 33004KT 23/19 A3009 RMK A01 T02310189  RH  077%=      5-min Rain = 0
KPD4 061358Z 34004KT 23/19 A3009 RMK A01 T02320187  RH  076%=      5-min Rain = 0
KPD4 061359Z 33003KT 23/19 A3009 RMK A01 T02300186  RH  076%=      5-min Rain = 0
KPD4 061400Z 34004KT 23/19 A3009 RMK A01 T02290187  RH  077%=      5-min Rain = 0
KPD4 061401Z 33005KT 23/19 A3009 RMK A01 T02310188  RH  077%=      5-min Rain = 0
KPD4 061402Z 33004KT 23/19 A3009 RMK A01 T02320188  RH  076%=      5-min Rain = 0
KPD4 061403Z 32004KT 23/19 A3009 RMK A01 T02320188  RH  076%=      5-min Rain = 0
KPD4 061404Z 32004KT 23/19 A3009 RMK A01 T02320189  RH  077%=      5-min Rain = 0
KPD4 061405Z 31005KT 23/19 A3009 RMK A01 T02320190  RH  077%=      5-min Rain = 0
KPD4 061406Z 30005KT 23/19 A3009 RMK A01 T02330189  RH  076%=      5-min Rain = 0
KPD4 061407Z 31004KT 23/19 A3009 RMK A01 T02340188  RH  075%=      5-min Rain = 0
KPD4 061408Z 30005KT 23/19 A3009 RMK A01 T02330188  RH  076%=      5-min Rain = 0
KPD4 061409Z 30004KT 23/19 A3009 RMK A01 T02330188  RH  076%=      5-min Rain = 0
KPD4 061410Z 31005KT 23/19 A3009 RMK A01 T02330190  RH  077%=      5-min Rain = 0
KPD4 061411Z 32004KT 23/19 A3009 RMK A01 T02340188  RH  075%=      5-min Rain = 0
KPD4 061412Z 30004KT 24/19 A3009 RMK A01 T02370191  RH  075%=      5-min Rain = 0
KPD4 061413Z 32004KT 24/19 A3009 RMK A01 T02370190  RH  075%=      5-min Rain = 0
KPD4 061414Z 30005KT 24/19 A3009 RMK A01 T02390192  RH  075%=      5-min Rain = 0
KPD4 061415Z 31004KT 24/19 A3009 RMK A01 T02400190  RH  074%=      5-min Rain = 0
KPD4 061416Z 30005KT 24/19 A3008 RMK A01 T02400191  RH  074%=      5-min Rain = 0
KPD4 061417Z 29004KT 24/19 A3008 RMK A01 T02410188  RH  072%=      5-min Rain = 0
KPD4 061418Z 29003KT 24/19 A3008 RMK A01 T02400188  RH  073%=      5-min Rain = 0
KPD4 061419Z 29005KT 24/19 A3008 RMK A01 T02410190  RH  073%=      5-min Rain = 0
KPD4 061420Z 30004KT 24/19 A3008 RMK A01 T02410188  RH  072%=      5-min Rain = 0
KPD4 061421Z 30004KT 24/19 A3008 RMK A01 T02400190  RH  073%=      5-min Rain = 0
KPD4 061422Z 30004KT 24/19 A3008 RMK A01 T02420186  RH  071%=      5-min Rain = 0
KPD4 061423Z 28005KT 24/19 A3008 RMK A01 T02420188  RH  072%=      5-min Rain = 0
KPD4 061424Z 28004KT 24/19 A3008 RMK A01 T02430187  RH  071%=      5-min Rain = 0
KPD4 061425Z 27004KT 24/19 A3008 RMK A01 T02430189  RH  072%=      5-min Rain = 0
KPD4 061426Z 27004KT 24/19 A3008 RMK A01 T02440186  RH  070%=      5-min Rain = 0
KPD4 061427Z 26002KT 25/19 A3008 RMK A01 T02450187  RH  070%=      5-min Rain = 0
KPD4 061428Z 27004KT 25/19 A3008 RMK A01 T02450191  RH  072%=      5-min Rain = 0
KPD4 061429Z 28003KT 25/19 A3008 RMK A01 T02470191  RH  071%=      5-min Rain = 0
KPD4 061430Z 29002KT 25/19 A3008 RMK A01 T02470190  RH  070%=      5-min Rain = 0
KPD4 061431Z 31002KT 25/19 A3008 RMK A01 T02480190  RH  070%=      5-min Rain = 0
KPD4 061432Z 31005KT 25/19 A3008 RMK A01 T02490191  RH  070%=      5-min Rain = 0
KPD4 061433Z 28005KT 25/19 A3008 RMK A01 T02510190  RH  069%=      5-min Rain = 0
KPD4 061434Z 28004KT 25/19 A3008 RMK A01 T02520188  RH  068%=      5-min Rain = 0
KPD4 061435Z 30003KT 25/19 A3008 RMK A01 T02510186  RH  067%=      5-min Rain = 0
KPD4 061436Z 30004KT 25/19 A3008 RMK A01 T02490190  RH  070%=      5-min Rain = 0
KPD4 061437Z 27004KT 25/19 A3008 RMK A01 T02490189  RH  069%=      5-min Rain = 0
KPD4 061438Z 27005KT 25/18 A3009 RMK A01 T02510183  RH  066%=      5-min Rain = 0
KPD4 061439Z 28004KT 25/19 A3009 RMK A01 T02510187  RH  068%=      5-min Rain = 0
KPD4 061440Z 29003KT 25/19 A3009 RMK A01 T02510189  RH  068%=      5-min Rain = 0
KPD4 061441Z 31004KT 25/19 A3009 RMK A01 T02520188  RH  068%=      5-min Rain = 0
KPD4 061442Z 27007KT 25/19 A3009 RMK A01 T02510187  RH  068%=      5-min Rain = 0
KPD4 061443Z 26005KT 25/19 A3009 RMK A01 T02520186  RH  067%=      5-min Rain = 0
KPD4 061444Z 26004KT 25/19 A3009 RMK A01 T02520185  RH  067%=      5-min Rain = 0
KPD4 061445Z 27005KT 25/19 A3009 RMK A01 T02510188  RH  068%=      5-min Rain = 0
KPD4 061446Z 29005KT 25/19 A3009 RMK A01 T02530187  RH  067%=      5-min Rain = 0
KPD4 061447Z 30004KT 25/18 A3009 RMK A01 T02530184  RH  065%=      5-min Rain = 0
KPD4 061448Z 28005KT 25/19 A3009 RMK A01 T02530187  RH  067%=      5-min Rain = 0
KPD4 061449Z 29004KT 25/19 A3009 RMK A01 T02540187  RH  066%=      5-min Rain = 0
KPD4 061450Z 26006KT 26/19 A3008 RMK A01 T02550187  RH  066%=      5-min Rain = 0
KPD4 061451Z 25005KT 26/18 A3008 RMK A01 T02580184  RH  064%=      5-min Rain = 0
KPD4 061452Z 25006KT 26/18 A3008 RMK A01 T02560182  RH  063%=      5-min Rain = 0
KPD4 061453Z 25006KT 26/18 A3008 RMK A01 T02550184  RH  065%=      5-min Rain = 0
KPD4 061454Z 28004KT 26/19 A3008 RMK A01 T02550189  RH  067%=      5-min Rain = 0
KPD4 061455Z 27004KT 26/19 A3008 RMK A01 T02590190  RH  066%=      5-min Rain = 0
KPD4 061456Z 29004KT 26/19 A3009 RMK A01 T02600188  RH  064%=      5-min Rain = 0
KPD4 061457Z 30005KT 26/19 A3009 RMK A01 T02600189  RH  065%=      5-min Rain = 0
KPD4 061458Z 32004KT 26/19 A3009 RMK A01 T02580186  RH  065%=      5-min Rain = 0
KPD4 061459Z 26004KT 26/19 A3009 RMK A01 T02560189  RH  066%=      5-min Rain = 0
KPD4 061500Z 27005KT 26/19 A3009 RMK A01 T02570192  RH  067%=      5-min Rain = 0
KPD4 061501Z 30005KT 26/19 A3009 RMK A01 T02590191  RH  066%=      5-min Rain = 0
KPD4 061502Z 29004KT 26/19 A3009 RMK A01 T02580189  RH  065%=      5-min Rain = 0
KPD4 061503Z 30004KT 26/19 A3009 RMK A01 T02580190  RH  066%=      5-min Rain = 0
KPD4 061504Z 30005KT 26/19 A3009 RMK A01 T02580188  RH  065%=      5-min Rain = 0
KPD4 061505Z 26003KT 26/19 A3009 RMK A01 T02590192  RH  066%=      5-min Rain = 0
KPD4 061506Z 27004KT 26/19 A3009 RMK A01 T02640193  RH  065%=      5-min Rain = 0
KPD4 061507Z 27005KT 27/19 A3009 RMK A01 T02650189  RH  063%=      5-min Rain = 0
KPD4 061508Z 28004KT 26/19 A3009 RMK A01 T02630188  RH  063%=      5-min Rain = 0
KPD4 061509Z 30002KT 26/19 A3009 RMK A01 T02630190  RH  064%=      5-min Rain = 0
KPD4 061510Z 28004KT 27/19 A3009 RMK A01 T02650189  RH  063%=      5-min Rain = 0
KPD4 061511Z 25005KT 26/19 A3009 RMK A01 T02640188  RH  063%=      5-min Rain = 0
KPD4 061512Z 22005KT 26/19 A3009 RMK A01 T02610186  RH  063%=      5-min Rain = 0
KPD4 061513Z 23003KT 26/19 A3008 RMK A01 T02590185  RH  064%=      5-min Rain = 0
KPD4 061514Z 23002KT 26/19 A3008 RMK A01 T02570186  RH  065%=      5-min Rain = 0
KPD4 061515Z 23003KT 26/19 A3008 RMK A01 T02570186  RH  065%=      5-min Rain = 0
KPD4 061516Z 23002KT 26/19 A3008 RMK A01 T02580187  RH  065%=      5-min Rain = 0
KPD4 061517Z 31001KT 26/19 A3008 RMK A01 T02590185  RH  064%=      5-min Rain = 0
KPD4 061518Z 26000KT 26/19 A3008 RMK A01 T02590187  RH  064%=      5-min Rain = 0
KPD4 061519Z 22001KT 26/19 A3008 RMK A01 T02590186  RH  064%=      5-min Rain = 0
KPD4 061520Z 23001KT 26/19 A3008 RMK A01 T02590185  RH  063%=      5-min Rain = 0
KPD4 061521Z 03002KT 26/19 A3008 RMK A01 T02590185  RH  064%=      5-min Rain = 0
KPD4 061522Z 01001KT 26/18 A3008 RMK A01 T02600184  RH  063%=      5-min Rain = 0
KPD4 061523Z 03000KT 26/19 A3008 RMK A01 T02610185  RH  063%=      5-min Rain = 0
KPD4 061524Z 02001KT 26/19 A3008 RMK A01 T02620186  RH  063%=      5-min Rain = 0
KPD4 061525Z 34002KT 26/19 A3008 RMK A01 T02640187  RH  062%=      5-min Rain = 0
KPD4 061526Z 32002KT 27/19 A3008 RMK A01 T02660188  RH  062%=      5-min Rain = 0
KPD4 061527Z 32003KT 27/19 A3008 RMK A01 T02680188  RH  062%=      5-min Rain = 0
KPD4 061528Z 31004KT 27/19 A3008 RMK A01 T02690188  RH  061%=      5-min Rain = 0
KPD4 061529Z 29004KT 27/19 A3008 RMK A01 T02680187  RH  061%=      5-min Rain = 0
KPD4 061530Z 29004KT 27/19 A3008 RMK A01 T02660186  RH  061%=      5-min Rain = 0
KPD4 061531Z 30004KT 26/19 A3008 RMK A01 T02640186  RH  062%=      5-min Rain = 0
KPD4 061532Z 32004KT 26/19 A3008 RMK A01 T02640186  RH  062%=      5-min Rain = 0
KPD4 061533Z 31004KT 26/19 A3008 RMK A01 T02640186  RH  062%=      5-min Rain = 0
KPD4 061534Z 31002KT 26/19 A3008 RMK A01 T02640187  RH  062%=      5-min Rain = 0
KPD4 061535Z 32002KT 27/19 A3008 RMK A01 T02660186  RH  061%=      5-min Rain = 0
KPD4 061536Z 33002KT 27/18 A3008 RMK A01 T02660184  RH  060%=      5-min Rain = 0
KPD4 061537Z 35002KT 26/19 A3008 RMK A01 T02640187  RH  062%=      5-min Rain = 0
KPD4 061538Z 34004KT 27/19 A3008 RMK A01 T02660186  RH  061%=      5-min Rain = 0
KPD4 061539Z 01002KT 27/19 A3008 RMK A01 T02670185  RH  061%=      5-min Rain = 0
KPD4 061540Z 09002KT 27/19 A3008 RMK A01 T02660185  RH  061%=      5-min Rain = 0
KPD4 061541Z 04004KT 27/19 A3008 RMK A01 T02680185  RH  061%=      5-min Rain = 0
KPD4 061542Z 06003KT 27/18 A3008 RMK A01 T02700184  RH  059%=      5-min Rain = 0
KPD4 061543Z 07005KT 27/19 A3008 RMK A01 T02730187  RH  060%=      5-min Rain = 0
KPD4 061544Z 04002KT 28/19 A3008 RMK A01 T02770186  RH  058%=      5-min Rain = 0
KPD4 061545Z 04001KT 28/19 A3008 RMK A01 T02780186  RH  057%=      5-min Rain = 0
KPD4 061546Z 02003KT 28/19 A3008 RMK A01 T02790185  RH  057%=      5-min Rain = 0
KPD4 061547Z 01003KT 28/19 A3008 RMK A01 T02780187  RH  057%=      5-min Rain = 0
KPD4 061548Z 01003KT 28/18 A3008 RMK A01 T02780183  RH  056%=      5-min Rain = 0
KPD4 061549Z 00002KT 28/18 A3008 RMK A01 T02760181  RH  056%=      5-min Rain = 0
KPD4 061550Z 35001KT 28/18 A3008 RMK A01 T02750182  RH  057%=      5-min Rain = 0
KPD4 061551Z 02005KT 28/18 A3008 RMK A01 T02760182  RH  056%=      5-min Rain = 0
KPD4 061552Z 04006KT 28/18 A3008 RMK A01 T02770183  RH  056%=      5-min Rain = 0
KPD4 061553Z 04004KT 28/18 A3008 RMK A01 T02770182  RH  056%=      5-min Rain = 0
KPD4 061554Z 02004KT 28/18 A3008 RMK A01 T02770181  RH  056%=      5-min Rain = 0
KPD4 061555Z 03003KT 28/18 A3008 RMK A01 T02770181  RH  056%=      5-min Rain = 0
KPD4 061556Z 00003KT 28/18 A3008 RMK A01 T02770180  RH  055%=      5-min Rain = 0
KPD4 061557Z 00003KT 28/18 A3008 RMK A01 T02770181  RH  056%=      5-min Rain = 0
KPD4 061558Z 00004KT 28/18 A3008 RMK A01 T02780180  RH  055%=      5-min Rain = 0
KPD4 061559Z 01005KT 28/18 A3008 RMK A01 T02780180  RH  055%=      5-min Rain = 0
KPD4 061600Z 00004KT 28/18 A3008 RMK A01 T02790180  RH  055%=      5-min Rain = 0
KPD4 061601Z 01004KT 28/18 A3008 RMK A01 T02780178  RH  055%=      5-min Rain = 0
KPD4 061602Z 35004KT 28/18 A3008 RMK A01 T02790179  RH  054%=      5-min Rain = 0
KPD4 061603Z 36003KT 28/18 A3008 RMK A01 T02810178  RH  053%=      5-min Rain = 0
KPD4 061604Z 35004KT 28/18 A3008 RMK A01 T02810179  RH  054%=      5-min Rain = 0
KPD4 061605Z 35003KT 28/18 A3008 RMK A01 T02790177  RH  054%=      5-min Rain = 0
KPD4 061606Z 35004KT 28/18 A3008 RMK A01 T02790176  RH  054%=      5-min Rain = 0
KPD4 061607Z 02005KT 28/18 A3008 RMK A01 T02780178  RH  054%=      5-min Rain = 0
KPD4 061608Z 05005KT 28/18 A3008 RMK A01 T02800183  RH  056%=      5-min Rain = 0
KPD4 061609Z 04005KT 28/18 A3008 RMK A01 T02830181  RH  054%=      5-min Rain = 0
KPD4 061610Z 05002KT 28/18 A3008 RMK A01 T02830179  RH  053%=      5-min Rain = 0
KPD4 061611Z 08002KT 28/18 A3008 RMK A01 T02820181  RH  054%=      5-min Rain = 0
KPD4 061612Z 06004KT 28/18 A3008 RMK A01 T02840182  RH  054%=      5-min Rain = 0
KPD4 061613Z 16004KT 29/18 A3008 RMK A01 T02860181  RH  053%=      5-min Rain = 0
KPD4 061614Z 15004KT 28/18 A3008 RMK A01 T02840180  RH  053%=      5-min Rain = 0
KPD4 061615Z 13005KT 28/18 A3008 RMK A01 T02830182  RH  054%=      5-min Rain = 0
KPD4 061616Z 10005KT 28/18 A3008 RMK A01 T02840180  RH  053%=      5-min Rain = 0
KPD4 061617Z 13006KT 28/18 A3008 RMK A01 T02840182  RH  054%=      5-min Rain = 0
KPD4 061618Z 13006KT 29/18 A3008 RMK A01 T02870182  RH  053%=      5-min Rain = 0
KPD4 061619Z 15006KT 29/18 A3008 RMK A01 T02880179  RH  052%=      5-min Rain = 0
KPD4 061620Z 17004KT 29/18 A3008 RMK A01 T02860179  RH  052%=      5-min Rain = 0
KPD4 061621Z 14002KT 29/18 A3008 RMK A01 T02850180  RH  053%=      5-min Rain = 0
KPD4 061622Z 13003G8KT 29/18 A3008 RMK A01 T02880183  RH  053%=      5-min Rain = 0
KPD4 061623Z 13006KT 29/18 A3008 RMK A01 T02900176  RH  050%=      5-min Rain = 0
KPD4 061624Z 15004KT 29/18 A3008 RMK A01 T02870177  RH  051%=      5-min Rain = 0
KPD4 061625Z 20002KT 28/18 A3008 RMK A01 T02840176  RH  052%=      5-min Rain = 0
KPD4 061626Z 15003KT 28/18 A3008 RMK A01 T02810175  RH  053%=      5-min Rain = 0
KPD4 061627Z 13002KT 28/18 A3008 RMK A01 T02800175  RH  053%=      5-min Rain = 0
KPD4 061628Z 16002KT 28/17 A3008 RMK A01 T02780172  RH  052%=      5-min Rain = 0
KPD4 061629Z 14004KT 28/18 A3008 RMK A01 T02770176  RH  054%=      5-min Rain = 0
KPD4 061630Z 12003KT 28/17 A3008 RMK A01 T02780173  RH  053%=      5-min Rain = 0
KPD4 061631Z 14003KT 28/17 A3008 RMK A01 T02780173  RH  053%=      5-min Rain = 0
KPD4 061632Z 11004KT 28/17 A3008 RMK A01 T02780173  RH  053%=      5-min Rain = 0
KPD4 061633Z 09003KT 28/17 A3008 RMK A01 T02760173  RH  054%=      5-min Rain = 0
KPD4 061634Z 08002KT 27/17 A3008 RMK A01 T02730174  RH  055%=      5-min Rain = 0
KPD4 061635Z 10003KT 27/17 A3008 RMK A01 T02730173  RH  055%=      5-min Rain = 0
KPD4 061636Z 13003KT 27/18 A3008 RMK A01 T02720175  RH  055%=      5-min Rain = 0
KPD4 061637Z 12002KT 27/18 A3008 RMK A01 T02730176  RH  056%=      5-min Rain = 0
KPD4 061638Z 07002KT 27/18 A3008 RMK A01 T02740176  RH  055%=      5-min Rain = 0
KPD4 061639Z 08004KT 27/18 A3008 RMK A01 T02730178  RH  056%=      5-min Rain = 0
KPD4 061640Z 07005KT 27/18 A3008 RMK A01 T02730178  RH  056%=      5-min Rain = 0
KPD4 061641Z 05005KT 27/18 A3008 RMK A01 T02730176  RH  055%=      5-min Rain = 0
KPD4 061642Z 05005KT 27/18 A3008 RMK A01 T02720175  RH  055%=      5-min Rain = 0
KPD4 061643Z 05004KT 27/18 A3008 RMK A01 T02710176  RH  056%=      5-min Rain = 0
KPD4 061644Z 04004KT 27/18 A3008 RMK A01 T02700175  RH  056%=      5-min Rain = 0
KPD4 061645Z 05004KT 27/17 A3008 RMK A01 T02700174  RH  056%=      5-min Rain = 0
KPD4 061646Z 04003KT 27/17 A3008 RMK A01 T02700173  RH  056%=      5-min Rain = 0
KPD4 061647Z 05002KT 27/18 A3008 RMK A01 T02710175  RH  056%=      5-min Rain = 0
KPD4 061648Z 05002KT 27/17 A3008 RMK A01 T02730173  RH  054%=      5-min Rain = 0
KPD4 061649Z 05002KT 28/18 A3008 RMK A01 T02750175  RH  054%=      5-min Rain = 0
KPD4 061650Z 03003KT 28/17 A3008 RMK A01 T02800174  RH  053%=      5-min Rain = 0
KPD4 061651Z 00001KT 28/17 A3008 RMK A01 T02830171  RH  051%=      5-min Rain = 0
KPD4 061652Z 03000KT 28/17 A3008 RMK A01 T02840173  RH  051%=      5-min Rain = 0
KPD4 061653Z 05002KT 28/18 A3008 RMK A01 T02840175  RH  052%=      5-min Rain = 0
KPD4 061654Z 36003KT 29/18 A3008 RMK A01 T02870179  RH  052%=      5-min Rain = 0
KPD4 061655Z 04002KT 29/18 A3008 RMK A01 T02890178  RH  051%=      5-min Rain = 0
KPD4 061656Z 07004KT 29/18 A3008 RMK A01 T02900179  RH  051%=      5-min Rain = 0
KPD4 061657Z 07002KT 29/18 A3008 RMK A01 T02910176  RH  050%=      5-min Rain = 0
KPD4 061658Z 05003KT 29/18 A3008 RMK A01 T02910180  RH  051%=      5-min Rain = 0
KPD4 061659Z 09007KT 29/18 A3008 RMK A01 T02910178  RH  050%=      5-min Rain = 0
KPD4 061700Z 10005KT 29/18 A3008 RMK A01 T02910178  RH  050%=      5-min Rain = 0
KPD4 061701Z 04005KT 29/18 A3008 RMK A01 T02910179  RH  051%=      5-min Rain = 0
KPD4 061702Z 01005KT 29/18 A3008 RMK A01 T02920179  RH  050%=      5-min Rain = 0
KPD4 061703Z 03006KT 29/18 A3008 RMK A01 T02940176  RH  049%=      5-min Rain = 0
KPD4 061704Z 04004KT 29/18 A3008 RMK A01 T02910176  RH  050%=      5-min Rain = 0
KPD4 061705Z 03001KT 29/18 A3008 RMK A01 T02870175  RH  051%=      5-min Rain = 0
KPD4 061706Z 01005KT 29/18 A3008 RMK A01 T02860178  RH  052%=      5-min Rain = 0
KPD4 061707Z 00003KT 29/18 A3008 RMK A01 T02860175  RH  051%=      5-min Rain = 0
KPD4 061708Z 35001KT 28/17 A3008 RMK A01 T02830174  RH  052%=      5-min Rain = 0
KPD4 061709Z 29003KT 28/18 A3008 RMK A01 T02840177  RH  052%=      5-min Rain = 0
KPD4 061710Z 29003KT 29/17 A3008 RMK A01 T02860172  RH  050%=      5-min Rain = 0
KPD4 061711Z 33002KT 29/18 A3008 RMK A01 T02870175  RH  051%=      5-min Rain = 0
KPD4 061712Z 35003KT 29/17 A3008 RMK A01 T02900174  RH  050%=      5-min Rain = 0
KPD4 061713Z 34005KT 29/17 A3008 RMK A01 T02910173  RH  049%=      5-min Rain = 0
KPD4 061714Z 33004KT 29/17 A3008 RMK A01 T02900173  RH  049%=      5-min Rain = 0
KPD4 061715Z 34004KT 29/17 A3008 RMK A01 T02900172  RH  049%=      5-min Rain = 0
KPD4 061716Z 02002KT 29/17 A3008 RMK A01 T02910172  RH  049%=      5-min Rain = 0
KPD4 061717Z 05004KT 29/17 A3008 RMK A01 T02920173  RH  049%=      5-min Rain = 0
KPD4 061718Z 06005KT 29/17 A3008 RMK A01 T02930173  RH  048%=      5-min Rain = 0
KPD4 061719Z 05004KT 29/17 A3008 RMK A01 T02920171  RH  048%=      5-min Rain = 0
KPD4 061720Z 04002KT 29/17 A3008 RMK A01 T02900171  RH  049%=      5-min Rain = 0
KPD4 061721Z 08004KT 29/17 A3008 RMK A01 T02910173  RH  049%=      5-min Rain = 0
KPD4 061722Z 09002KT 29/17 A3008 RMK A01 T02930169  RH  047%=      5-min Rain = 0
KPD4 061723Z 09003KT 29/17 A3008 RMK A01 T02930170  RH  047%=      5-min Rain = 0
KPD4 061724Z 07002KT 29/17 A3008 RMK A01 T02910172  RH  048%=      5-min Rain = 0
KPD4 061725Z 06006KT 29/18 A3008 RMK A01 T02940175  RH  049%=      5-min Rain = 0
KPD4 061726Z 05005KT 30/17 A3008 RMK A01 T02970172  RH  047%=      5-min Rain = 0
KPD4 061727Z 04004KT 29/17 A3008 RMK A01 T02940169  RH  047%=      5-min Rain = 0
KPD4 061728Z 03002KT 29/17 A3008 RMK A01 T02890168  RH  048%=      5-min Rain = 0
KPD4 061729Z 01002KT 29/17 A3008 RMK A01 T02850168  RH  049%=      5-min Rain = 0
KPD4 061730Z 36002KT 28/17 A3008 RMK A01 T02840169  RH  050%=      5-min Rain = 0
KPD4 061731Z 34002KT 28/17 A3008 RMK A01 T02830169  RH  050%=      5-min Rain = 0
KPD4 061732Z 02001KT 28/17 A3008 RMK A01 T02830166  RH  049%=      5-min Rain = 0
KPD4 061733Z 01001KT 28/17 A3008 RMK A01 T02830168  RH  050%=      5-min Rain = 0
KPD4 061734Z 03002KT 28/17 A3008 RMK A01 T02830169  RH  050%=      5-min Rain = 0
KPD4 061735Z 04002KT 28/17 A3008 RMK A01 T02830168  RH  050%=      5-min Rain = 0
KPD4 061736Z 07004KT 28/17 A3008 RMK A01 T02840170  RH  050%=      5-min Rain = 0
KPD4 061737Z 07003KT 29/17 A3008 RMK A01 T02870170  RH  049%=      5-min Rain = 0
KPD4 061738Z 08002KT 29/17 A3008 RMK A01 T02900172  RH  049%=      5-min Rain = 0
KPD4 061739Z 04003KT 29/17 A3008 RMK A01 T02930169  RH  047%=      5-min Rain = 0
KPD4 061740Z 12005KT 29/17 A3008 RMK A01 T02930170  RH  047%=      5-min Rain = 0
KPD4 061741Z 12004KT 30/17 A3008 RMK A01 T02960172  RH  047%=      5-min Rain = 0
KPD4 061742Z 14005KT 30/17 A3008 RMK A01 T02980171  RH  046%=      5-min Rain = 0
KPD4 061743Z 14003KT 30/17 A3008 RMK A01 T03000171  RH  046%=      5-min Rain = 0
KPD4 061744Z 12003KT 30/17 A3008 RMK A01 T03020172  RH  046%=      5-min Rain = 0
KPD4 061745Z 09003KT 30/17 A3008 RMK A01 T03030171  RH  045%=      5-min Rain = 0
KPD4 061746Z 05002KT 30/17 A3008 RMK A01 T03030169  RH  044%=      5-min Rain = 0
KPD4 061747Z 11000KT 30/17 A3008 RMK A01 T03010169  RH  045%=      5-min Rain = 0
KPD4 061748Z 11005KT 30/17 A3008 RMK A01 T03010172  RH  046%=      5-min Rain = 0
KPD4 061749Z 13006KT 30/17 A3008 RMK A01 T03040168  RH  044%=      5-min Rain = 0
KPD4 061750Z 14007KT 30/17 A3008 RMK A01 T03010167  RH  044%=      5-min Rain = 0
KPD4 061751Z 14006KT 30/17 A3008 RMK A01 T02990166  RH  045%=      5-min Rain = 0
KPD4 061752Z 14005KT 30/17 A3008 RMK A01 T02960167  RH  046%=      5-min Rain = 0
KPD4 061753Z 14006KT 30/17 A3008 RMK A01 T02950167  RH  046%=      5-min Rain = 0
KPD4 061754Z 13004KT 29/17 A3008 RMK A01 T02940166  RH  046%=      5-min Rain = 0
KPD4 061755Z 13003KT 29/17 A3008 RMK A01 T02920166  RH  047%=      5-min Rain = 0
KPD4 061756Z 08004KT 29/17 A3008 RMK A01 T02900168  RH  048%=      5-min Rain = 0
KPD4 061757Z 06004KT 29/16 A3008 RMK A01 T02900164  RH  046%=      5-min Rain = 0
KPD4 061758Z 09003KT 29/17 A3008 RMK A01 T02920169  RH  047%=      5-min Rain = 0
KPD4 061759Z 11004KT 30/17 A3008 RMK A01 T02970169  RH  046%=      5-min Rain = 0
KPD4 061800Z 08006KT 30/17 A3008 RMK A01 T03020173  RH  046%=      5-min Rain = 0
KPD4 061801Z 06005KT 31/18 A3008 RMK A01 T03100175  RH  045%=      5-min Rain = 0
KPD4 061802Z 08007KT 32/17 A3008 RMK A01 T03150173  RH  043%=      5-min Rain = 0
KPD4 061803Z 08004KT 32/17 A3008 RMK A01 T03160170  RH  042%=      5-min Rain = 0
KPD4 061804Z 09004KT 31/17 A3008 RMK A01 T03130170  RH  042%=      5-min Rain = 0
KPD4 061805Z 07002KT 31/17 A3008 RMK A01 T03110169  RH  043%=      5-min Rain = 0
KPD4 061806Z 08005KT 31/17 A3008 RMK A01 T03100170  RH  043%=      5-min Rain = 0
KPD4 061807Z 07007KT 31/17 A3008 RMK A01 T03090166  RH  042%=      5-min Rain = 0
KPD4 061808Z 06006KT 31/17 A3008 RMK A01 T03090168  RH  043%=      5-min Rain = 0
KPD4 061809Z 08007KT 31/17 A3008 RMK A01 T03090166  RH  042%=      5-min Rain = 0
KPD4 061810Z 08006KT 31/17 A3008 RMK A01 T03090166  RH  042%=      5-min Rain = 0
KPD4 061811Z 09007KT 31/17 A3008 RMK A01 T03080165  RH  042%=      5-min Rain = 0
KPD4 061812Z 09007KT 31/16 A3008 RMK A01 T03050163  RH  042%=      5-min Rain = 0
KPD4 061813Z 09005KT 30/16 A3008 RMK A01 T03000162  RH  043%=      5-min Rain = 0
KPD4 061814Z 10003KT 30/16 A3008 RMK A01 T02970161  RH  044%=      5-min Rain = 0
KPD4 061815Z 12003KT 30/16 A3008 RMK A01 T02950162  RH  045%=      5-min Rain = 0
KPD4 061816Z 12003KT 30/16 A3008 RMK A01 T02950163  RH  045%=      5-min Rain = 0
KPD4 061817Z 11003KT 30/17 A3008 RMK A01 T02960165  RH  045%=      5-min Rain = 0
KPD4 061818Z 08004KT 30/17 A3008 RMK A01 T03000168  RH  045%=      5-min Rain = 0
KPD4 061819Z 07005KT 30/17 A3008 RMK A01 T03040167  RH  044%=      5-min Rain = 0
KPD4 061820Z 07003KT 31/17 A3008 RMK A01 T03070169  RH  043%=      5-min Rain = 0
KPD4 061821Z 07003KT 31/17 A3008 RMK A01 T03090167  RH  043%=      5-min Rain = 0
KPD4 061822Z 08003KT 31/17 A3008 RMK A01 T03090168  RH  043%=      5-min Rain = 0
KPD4 061823Z 09002KT 31/17 A3008 RMK A01 T03090166  RH  042%=      5-min Rain = 0
KPD4 061824Z 13003KT 31/17 A3008 RMK A01 T03070166  RH  043%=      5-min Rain = 0
KPD4 061825Z 11006KT 30/16 A3008 RMK A01 T03040164  RH  043%=      5-min Rain = 0
KPD4 061826Z 12005KT 30/16 A3008 RMK A01 T03010163  RH  044%=      5-min Rain = 0
KPD4 061827Z 13004KT 30/17 A3008 RMK A01 T02980165  RH  045%=      5-min Rain = 0
KPD4 061828Z 12003KT 30/17 A3008 RMK A01 T02990166  RH  045%=      5-min Rain = 0
KPD4 061829Z 12003KT 30/17 A3008 RMK A01 T03020168  RH  045%=      5-min Rain = 0
KPD4 061830Z 08003KT 31/17 A3008 RMK A01 T03060169  RH  044%=      5-min Rain = 0
KPD4 061831Z 07004KT 31/17 A3007 RMK A01 T03090170  RH  043%=      5-min Rain = 0
KPD4 061832Z 07006KT 31/17 A3007 RMK A01 T03120170  RH  043%=      5-min Rain = 0
KPD4 061833Z 04006KT 31/17 A3007 RMK A01 T03130167  RH  042%=      5-min Rain = 0
KPD4 061834Z 04006KT 31/17 A3007 RMK A01 T03100167  RH  042%=      5-min Rain = 0
KPD4 061835Z 02005KT 31/17 A3007 RMK A01 T03090166  RH  042%=      5-min Rain = 0
KPD4 061836Z 02003KT 31/17 A3007 RMK A01 T03080167  RH  043%=      5-min Rain = 0
KPD4 061837Z 04003KT 31/16 A3007 RMK A01 T03100164  RH  041%=      5-min Rain = 0
KPD4 061838Z 09002KT 31/16 A3007 RMK A01 T03070161  RH  041%=      5-min Rain = 0
KPD4 061839Z 35001KT 31/17 A3007 RMK A01 T03050166  RH  043%=      5-min Rain = 0
KPD4 061840Z 35004KT 31/17 A3007 RMK A01 T03070166  RH  043%=      5-min Rain = 0
KPD4 061841Z 35006KT 31/16 A3007 RMK A01 T03090164  RH  042%=      5-min Rain = 0
KPD4 061842Z 35005KT 31/17 A3007 RMK A01 T03100165  RH  042%=      5-min Rain = 0
KPD4 061843Z 01005KT 31/16 A3007 RMK A01 T03090164  RH  042%=      5-min Rain = 0
KPD4 061844Z 03002KT 31/16 A3007 RMK A01 T03070163  RH  042%=      5-min Rain = 0
KPD4 061845Z 35001KT 31/16 A3007 RMK A01 T03050164  RH  043%=      5-min Rain = 0
KPD4 061846Z 35000KT 31/16 A3007 RMK A01 T03050164  RH  043%=      5-min Rain = 0
KPD4 061847Z 31001KT 30/16 A3007 RMK A01 T03040163  RH  043%=      5-min Rain = 0
KPD4 061848Z 33002KT 30/17 A3007 RMK A01 T03030165  RH  043%=      5-min Rain = 0
KPD4 061849Z 03003KT 30/16 A3007 RMK A01 T03030163  RH  043%=      5-min Rain = 0
KPD4 061850Z 01005KT 30/16 A3007 RMK A01 T03020163  RH  043%=      5-min Rain = 0
KPD4 061851Z 35005KT 30/16 A3007 RMK A01 T03020164  RH  043%=      5-min Rain = 0
KPD4 061852Z 02003KT 30/17 A3007 RMK A01 T03030166  RH  044%=      5-min Rain = 0
KPD4 061853Z 02004KT 31/17 A3007 RMK A01 T03060168  RH  043%=      5-min Rain = 0
KPD4 061854Z 05006KT 31/17 A3007 RMK A01 T03070166  RH  043%=      5-min Rain = 0
KPD4 061855Z 02006KT 31/16 A3006 RMK A01 T03050163  RH  042%=      5-min Rain = 0
KPD4 061856Z 02004KT 30/16 A3007 RMK A01 T03010162  RH  043%=      5-min Rain = 0
KPD4 061857Z 01003KT 30/16 A3007 RMK A01 T02970161  RH  044%=      5-min Rain = 0
KPD4 061858Z 01003KT 30/16 A3007 RMK A01 T02960163  RH  045%=      5-min Rain = 0
KPD4 061859Z 01003KT 30/16 A3007 RMK A01 T02960162  RH  044%=      5-min Rain = 0
KPD4 061900Z 00002KT 30/16 A3007 RMK A01 T02950162  RH  045%=      5-min Rain = 0
KPD4 061901Z 35002KT 30/16 A3006 RMK A01 T02950162  RH  045%=      5-min Rain = 0
KPD4 061902Z 35001KT 30/16 A3006 RMK A01 T02970164  RH  045%=      5-min Rain = 0
KPD4 061903Z 21000KT 30/17 A3006 RMK A01 T03000166  RH  044%=      5-min Rain = 0
KPD4 061904Z 23002KT 30/17 A3006 RMK A01 T03040167  RH  044%=      5-min Rain = 0
KPD4 061905Z 27001KT 31/16 A3006 RMK A01 T03060164  RH  042%=      5-min Rain = 0
KPD4 061906Z 00001KT 31/16 A3006 RMK A01 T03080164  RH  042%=      5-min Rain = 0
KPD4 061907Z 04002KT 31/17 A3006 RMK A01 T03090165  RH  042%=      5-min Rain = 0
KPD4 061908Z 04004KT 31/16 A3006 RMK A01 T03100164  RH  042%=      5-min Rain = 0
KPD4 061909Z 07007KT 31/16 A3006 RMK A01 T03130160  RH  040%=      5-min Rain = 0
KPD4 061910Z 08006KT 31/16 A3006 RMK A01 T03140155  RH  038%=      5-min Rain = 0
KPD4 061911Z 09004KT 31/16 A3006 RMK A01 T03120159  RH  040%=      5-min Rain = 0
KPD4 061912Z 07003KT 31/16 A3006 RMK A01 T03080157  RH  040%=      5-min Rain = 0
KPD4 061913Z 04002KT 31/16 A3006 RMK A01 T03060157  RH  041%=      5-min Rain = 0
KPD4 061914Z 10001KT 30/16 A3006 RMK A01 T03040159  RH  042%=      5-min Rain = 0
KPD4 061915Z 09002KT 30/16 A3006 RMK A01 T03040160  RH  042%=      5-min Rain = 0
KPD4 061916Z 06003KT 30/16 A3006 RMK A01 T03040159  RH  041%=      5-min Rain = 0
KPD4 061917Z 06003KT 31/16 A3006 RMK A01 T03050160  RH  042%=      5-min Rain = 0
KPD4 061918Z 07004KT 31/16 A3006 RMK A01 T03060163  RH  042%=      5-min Rain = 0
KPD4 061919Z 07004KT 31/17 A3006 RMK A01 T03100166  RH  042%=      5-min Rain = 0
KPD4 061920Z 05003KT 31/17 A3006 RMK A01 T03120169  RH  042%=      5-min Rain = 0
KPD4 061921Z 15003KT 31/17 A3006 RMK A01 T03140168  RH  042%=      5-min Rain = 0
KPD4 061922Z 16007KT 32/17 A3005 RMK A01 T03170172  RH  042%=      5-min Rain = 0
KPD4 061923Z 17008KT 32/17 A3005 RMK A01 T03240170  RH  040%=      5-min Rain = 0
KPD4 061924Z 16009KT 32/17 A3005 RMK A01 T03240166  RH  039%=      5-min Rain = 0
KPD4 061925Z 16006KT 32/17 A3005 RMK A01 T03220166  RH  039%=      5-min Rain = 0
KPD4 061926Z 16004KT 32/16 A3005 RMK A01 T03200164  RH  039%=      5-min Rain = 0
KPD4 061927Z 17004G9KT 32/16 A3005 RMK A01 T03180164  RH  040%=      5-min Rain = 0
KPD4 061928Z 21004KT 32/17 A3005 RMK A01 T03150165  RH  041%=      5-min Rain = 0
KPD4 061929Z 24004KT 32/17 A3005 RMK A01 T03170165  RH  040%=      5-min Rain = 0
KPD4 061930Z 08004KT 32/16 A3005 RMK A01 T03170164  RH  040%=      5-min Rain = 0
KPD4 061931Z 12004KT 32/16 A3005 RMK A01 T03150164  RH  040%=      5-min Rain = 0
KPD4 061932Z 16005KT 32/16 A3005 RMK A01 T03150163  RH  040%=      5-min Rain = 0
KPD4 061933Z 16006KT 32/16 A3005 RMK A01 T03160163  RH  040%=      5-min Rain = 0
KPD4 061934Z 13005KT 32/16 A3005 RMK A01 T03170163  RH  040%=      5-min Rain = 0
KPD4 061935Z 15006KT 32/16 A3005 RMK A01 T03180164  RH  040%=      5-min Rain = 0
KPD4 061936Z 13008KT 32/16 A3005 RMK A01 T03170163  RH  040%=      5-min Rain = 0
KPD4 061937Z 16004KT 31/16 A3005 RMK A01 T03130161  RH  040%=      5-min Rain = 0
KPD4 061938Z 10003KT 31/16 A3005 RMK A01 T03080164  RH  042%=      5-min Rain = 0
KPD4 061939Z 09004KT 31/16 A3005 RMK A01 T03070163  RH  042%=      5-min Rain = 0
KPD4 061940Z 09005KT 31/16 A3005 RMK A01 T03070162  RH  042%=      5-min Rain = 0
KPD4 061941Z 08006KT 31/16 A3005 RMK A01 T03060164  RH  042%=      5-min Rain = 0
KPD4 061942Z 07008KT 31/16 A3005 RMK A01 T03060162  RH  042%=      5-min Rain = 0
KPD4 061943Z 09009KT 31/16 A3005 RMK A01 T03060164  RH  043%=      5-min Rain = 0
KPD4 061944Z 10008KT 31/16 A3005 RMK A01 T03050164  RH  043%=      5-min Rain = 0
KPD4 061945Z 09008KT 31/16 A3005 RMK A01 T03050161  RH  042%=      5-min Rain = 0
KPD4 061946Z 08007KT 30/16 A3005 RMK A01 T03040161  RH  042%=      5-min Rain = 0
KPD4 061947Z 05005KT 30/16 A3005 RMK A01 T03040159  RH  042%=      5-min Rain = 0
KPD4 061948Z 06005KT 31/16 A3005 RMK A01 T03050161  RH  042%=      5-min Rain = 0
KPD4 061949Z 06006KT 31/16 A3004 RMK A01 T03070160  RH  041%=      5-min Rain = 0
KPD4 061950Z 06004KT 31/16 A3004 RMK A01 T03080162  RH  041%=      5-min Rain = 0
KPD4 061951Z 05005KT 31/16 A3004 RMK A01 T03120160  RH  040%=      5-min Rain = 0
KPD4 061952Z 07005KT 31/16 A3004 RMK A01 T03120161  RH  040%=      5-min Rain = 0
KPD4 061953Z 11007KT 31/17 A3004 RMK A01 T03140166  RH  041%=      5-min Rain = 0
KPD4 061954Z 09008KT 32/17 A3004 RMK A01 T03150167  RH  041%=      5-min Rain = 0
KPD4 061955Z 08010KT 32/16 A3004 RMK A01 T03170164  RH  040%=      5-min Rain = 0
KPD4 061956Z 08008KT 31/16 A3004 RMK A01 T03120162  RH  040%=      5-min Rain = 0
KPD4 061957Z 07009KT 31/16 A3004 RMK A01 T03080161  RH  041%=      5-min Rain = 0
KPD4 061958Z 07007KT 31/16 A3004 RMK A01 T03060161  RH  041%=      5-min Rain = 0
KPD4 061959Z 07007KT 31/16 A3004 RMK A01 T03050160  RH  041%=      5-min Rain = 0
KPD4 062000Z 07006KT 31/16 A3004 RMK A01 T03050161  RH  042%=      5-min Rain = 0
KPD4 062001Z 07005KT 31/16 A3004 RMK A01 T03060160  RH  041%=      5-min Rain = 0
KPD4 062002Z 07006KT 31/16 A3004 RMK A01 T03060160  RH  041%=      5-min Rain = 0
KPD4 062003Z 07005KT 31/16 A3004 RMK A01 T03060161  RH  042%=      5-min Rain = 0
KPD4 062004Z 11005KT 31/16 A3004 RMK A01 T03050163  RH  042%=      5-min Rain = 0
KPD4 062005Z 12007G12KT 31/16 A3004 RMK A01 T03060161  RH  042%=      5-min Rain = 0
KPD4 062006Z 11009KT 31/16 A3004 RMK A01 T03050163  RH  042%=      5-min Rain = 0
KPD4 062007Z 12005KT 31/16 A3004 RMK A01 T03050162  RH  042%=      5-min Rain = 0
KPD4 062008Z 13007KT 31/16 A3004 RMK A01 T03050163  RH  042%=      5-min Rain = 0
KPD4 062009Z 13011G16KT 31/16 A3004 RMK A01 T03060163  RH  042%=      5-min Rain = 0
KPD4 062010Z 12011KT 31/16 A3004 RMK A01 T03080161  RH  041%=      5-min Rain = 0
KPD4 062011Z 12009KT 31/16 A3004 RMK A01 T03080161  RH  041%=      5-min Rain = 0
KPD4 062012Z 13008KT 31/16 A3004 RMK A01 T03070161  RH  041%=      5-min Rain = 0
KPD4 062013Z 14003KT 31/16 A3004 RMK A01 T03060159  RH  041%=      5-min Rain = 0
KPD4 062014Z 12003KT 31/16 A3004 RMK A01 T03060161  RH  042%=      5-min Rain = 0
KPD4 062015Z 13003KT 31/16 A3004 RMK A01 T03090164  RH  042%=      5-min Rain = 0
KPD4 062016Z 12003KT 31/17 A3004 RMK A01 T03140165  RH  041%=      5-min Rain = 0
KPD4 062017Z 10001KT 32/17 A3004 RMK A01 T03190165  RH  040%=      5-min Rain = 0
KPD4 062018Z 14003KT 32/16 A3004 RMK A01 T03220164  RH  039%=      5-min Rain = 0
KPD4 062019Z 09004KT 32/16 A3004 RMK A01 T03220163  RH  038%=      5-min Rain = 0
KPD4 062020Z 05003KT 32/16 A3004 RMK A01 T03220161  RH  038%=      5-min Rain = 0
KPD4 062021Z 17006KT 32/16 A3003 RMK A01 T03210159  RH  038%=      5-min Rain = 0
KPD4 062022Z 13009KT 32/16 A3003 RMK A01 T03180159  RH  038%=      5-min Rain = 0
KPD4 062023Z 12010KT 32/16 A3003 RMK A01 T03160158  RH  039%=      5-min Rain = 0
KPD4 062024Z 13009KT 31/16 A3003 RMK A01 T03140158  RH  039%=      5-min Rain = 0
KPD4 062025Z 11008KT 31/16 A3004 RMK A01 T03130157  RH  039%=      5-min Rain = 0
KPD4 062026Z 12006KT 31/16 A3004 RMK A01 T03120157  RH  039%=      5-min Rain = 0
KPD4 062027Z 10004KT 31/16 A3004 RMK A01 T03110157  RH  039%=      5-min Rain = 0
KPD4 062028Z 07005KT 31/16 A3004 RMK A01 T03110157  RH  040%=      5-min Rain = 0
KPD4 062029Z 31001KT 31/16 A3003 RMK A01 T03100156  RH  039%=      5-min Rain = 0
KPD4 062030Z 06004KT 31/16 A3003 RMK A01 T03100157  RH  040%=      5-min Rain = 0
KPD4 062031Z 10014KT 31/16 A3003 RMK A01 T03100158  RH  040%=      5-min Rain = 0
KPD4 062032Z 12010KT 31/16 A3003 RMK A01 T03110157  RH  039%=      5-min Rain = 0
KPD4 062033Z 12011KT 31/16 A3003 RMK A01 T03120155  RH  039%=      5-min Rain = 0
KPD4 062034Z 13010KT 31/16 A3003 RMK A01 T03130156  RH  039%=      5-min Rain = 0
KPD4 062035Z 13010KT 31/15 A3003 RMK A01 T03140153  RH  038%=      5-min Rain = 0
KPD4 062036Z 14008KT 31/15 A3003 RMK A01 T03140153  RH  038%=      5-min Rain = 0
KPD4 062037Z 12007KT 31/15 A3003 RMK A01 T03120154  RH  039%=      5-min Rain = 0
KPD4 062038Z 13006KT 31/15 A3003 RMK A01 T03110154  RH  039%=      5-min Rain = 0
KPD4 062039Z 13009KT 31/15 A3003 RMK A01 T03100153  RH  039%=      5-min Rain = 0
KPD4 062040Z 12006KT 31/15 A3003 RMK A01 T03100152  RH  038%=      5-min Rain = 0
KPD4 062041Z 12004KT 31/15 A3003 RMK A01 T03100151  RH  038%=      5-min Rain = 0
KPD4 062042Z 16005KT 31/15 A3003 RMK A01 T03100154  RH  039%=      5-min Rain = 0
KPD4 062043Z 14006KT 31/16 A3003 RMK A01 T03130156  RH  039%=      5-min Rain = 0
KPD4 062044Z 14004KT 32/15 A3003 RMK A01 T03160152  RH  037%=      5-min Rain = 0
KPD4 062045Z 13007KT 32/16 A3003 RMK A01 T03190157  RH  038%=      5-min Rain = 0
KPD4 062046Z 11004KT 32/15 A3003 RMK A01 T03220154  RH  036%=      5-min Rain = 0
KPD4 062047Z 12004KT 32/16 A3003 RMK A01 T03230155  RH  036%=      5-min Rain = 0
KPD4 062048Z 11006KT 33/15 A3003 RMK A01 T03250154  RH  036%=      5-min Rain = 0
KPD4 062049Z 10007KT 33/15 A3003 RMK A01 T03260154  RH  036%=      5-min Rain = 0
KPD4 062050Z 12006G11KT 33/16 A3003 RMK A01 T03250155  RH  036%=      5-min Rain = 0
KPD4 062051Z 12008KT 33/16 A3003 RMK A01 T03260155  RH  036%=      5-min Rain = 0
KPD4 062052Z 10006KT 33/15 A3002 RMK A01 T03280154  RH  035%=      5-min Rain = 0
KPD4 062053Z 11008KT 33/15 A3002 RMK A01 T03310154  RH  035%=      5-min Rain = 0
KPD4 062054Z 09009KT 34/15 A3002 RMK A01 T03370153  RH  033%=      5-min Rain = 0
KPD4 062055Z 09010KT 34/15 A3002 RMK A01 T03360148  RH  032%=      5-min Rain = 0
KPD4 062056Z 08008KT 33/15 A3002 RMK A01 T03320148  RH  033%=      5-min Rain = 0
KPD4 062057Z 07007KT 33/15 A3002 RMK A01 T03320147  RH  033%=      5-min Rain = 0
KPD4 062058Z 07005KT 33/15 A3002 RMK A01 T03310146  RH  033%=      5-min Rain = 0
KPD4 062059Z 05004KT 33/15 A3002 RMK A01 T03300147  RH  033%=      5-min Rain = 0
KPD4 062100Z 07006KT 33/15 A3002 RMK A01 T03290147  RH  034%=      5-min Rain = 0
KPD4 062101Z 05006KT 33/15 A3002 RMK A01 T03300146  RH  033%=      5-min Rain = 0
KPD4 062102Z 07005KT 33/15 A3002 RMK A01 T03310148  RH  033%=      5-min Rain = 0
KPD4 062103Z 09005KT 33/15 A3002 RMK A01 T03300150  RH  034%=      5-min Rain = 0
KPD4 062104Z 12010KT 33/15 A3002 RMK A01 T03310152  RH  034%=      5-min Rain = 0
KPD4 062105Z 13008KT 33/15 A3002 RMK A01 T03320151  RH  034%=      5-min Rain = 0
KPD4 062106Z 13011KT 33/15 A3002 RMK A01 T03310152  RH  034%=      5-min Rain = 0
KPD4 062107Z 13008KT 33/15 A3002 RMK A01 T03300148  RH  033%=      5-min Rain = 0
KPD4 062108Z 16007KT 33/15 A3002 RMK A01 T03260147  RH  034%=      5-min Rain = 0
KPD4 062109Z 16006KT 32/15 A3002 RMK A01 T03230148  RH  035%=      5-min Rain = 0
KPD4 062110Z 16004KT 32/15 A3002 RMK A01 T03200146  RH  035%=      5-min Rain = 0
KPD4 062111Z 19001KT 32/14 A3002 RMK A01 T03170144  RH  035%=      5-min Rain = 0
KPD4 062112Z 16002KT 32/15 A3002 RMK A01 T03160146  RH  036%=      5-min Rain = 0
KPD4 062113Z 14005KT 32/15 A3002 RMK A01 T03190149  RH  036%=      5-min Rain = 0
KPD4 062114Z 14005KT 32/15 A3002 RMK A01 T03230150  RH  035%=      5-min Rain = 0
KPD4 062115Z 11006KT 33/15 A3002 RMK A01 T03250150  RH  035%=      5-min Rain = 0
KPD4 062116Z 10004KT 33/15 A3002 RMK A01 T03270149  RH  034%=      5-min Rain = 0
KPD4 062117Z 10002KT 33/15 A3002 RMK A01 T03280147  RH  034%=      5-min Rain = 0
KPD4 062118Z 10003KT 33/15 A3002 RMK A01 T03270148  RH  034%=      5-min Rain = 0
KPD4 062119Z 16003KT 33/15 A3002 RMK A01 T03270149  RH  034%=      5-min Rain = 0
KPD4 062120Z 19003KT 33/15 A3002 RMK A01 T03280150  RH  034%=      5-min Rain = 0
KPD4 062121Z 17001KT 33/15 A3002 RMK A01 T03300146  RH  033%=      5-min Rain = 0
KPD4 062122Z 10004KT 33/15 A3002 RMK A01 T03300147  RH  033%=      5-min Rain = 0
KPD4 062123Z 08004KT 33/15 A3002 RMK A01 T03320151  RH  034%=      5-min Rain = 0
KPD4 062124Z 07004KT 33/15 A3002 RMK A01 T03340145  RH  032%=      5-min Rain = 0
KPD4 062125Z 09005KT 33/15 A3002 RMK A01 T03320147  RH  033%=      5-min Rain = 0
KPD4 062126Z 08008KT 33/15 A3002 RMK A01 T03320148  RH  033%=      5-min Rain = 0
KPD4 062127Z 08011KT 33/15 A3002 RMK A01 T03340149  RH  033%=      5-min Rain = 0
KPD4 062128Z 09008KT 33/15 A3002 RMK A01 T03330148  RH  033%=      5-min Rain = 0
KPD4 062129Z 13008KT 33/15 A3002 RMK A01 T03300149  RH  034%=      5-min Rain = 0
KPD4 062130Z 11006KT 33/15 A3002 RMK A01 T03270147  RH  034%=      5-min Rain = 0
KPD4 062131Z 10004KT 32/15 A3002 RMK A01 T03230146  RH  034%=      5-min Rain = 0
KPD4 062132Z 09003KT 32/15 A3002 RMK A01 T03200146  RH  035%=      5-min Rain = 0
KPD4 062133Z 10005KT 32/15 A3002 RMK A01 T03200150  RH  036%=      5-min Rain = 0
KPD4 062134Z 11006KT 33/15 A3002 RMK A01 T03250151  RH  035%=      5-min Rain = 0
KPD4 062135Z 12007KT 33/15 A3002 RMK A01 T03310149  RH  033%=      5-min Rain = 0
KPD4 062136Z 12003KT 33/15 A3002 RMK A01 T03310147  RH  033%=      5-min Rain = 0
KPD4 062137Z 12006KT 33/15 A3002 RMK A01 T03310147  RH  033%=      5-min Rain = 0
KPD4 062138Z 14007KT 33/15 A3002 RMK A01 T03310148  RH  033%=      5-min Rain = 0
KPD4 062139Z 13006KT 33/15 A3002 RMK A01 T03340147  RH  032%=      5-min Rain = 0
KPD4 062140Z 11004KT 34/15 A3002 RMK A01 T03350148  RH  033%=      5-min Rain = 0
KPD4 062141Z 10004KT 34/15 A3001 RMK A01 T03360150  RH  033%=      5-min Rain = 0
KPD4 062142Z 12007KT 34/15 A3001 RMK A01 T03390150  RH  032%=      5-min Rain = 0
KPD4 062143Z 14006KT 34/15 A3001 RMK A01 T03400151  RH  032%=      5-min Rain = 0
KPD4 062144Z 14010KT 34/15 A3001 RMK A01 T03410147  RH  031%=      5-min Rain = 0
KPD4 062145Z 14009KT 34/15 A3001 RMK A01 T03380146  RH  032%=      5-min Rain = 0
KPD4 062146Z 13010KT 34/15 A3001 RMK A01 T03370146  RH  032%=      5-min Rain = 0
KPD4 062147Z 14006KT 34/14 A3001 RMK A01 T03370143  RH  031%=      5-min Rain = 0
KPD4 062148Z 13004KT 34/14 A3001 RMK A01 T03350144  RH  032%=      5-min Rain = 0
KPD4 062149Z 12003KT 33/14 A3001 RMK A01 T03340142  RH  031%=      5-min Rain = 0
KPD4 062150Z 13005KT 33/15 A3001 RMK A01 T03330145  RH  032%=      5-min Rain = 0
KPD4 062151Z 11009KT 34/15 A3001 RMK A01 T03350146  RH  032%=      5-min Rain = 0
KPD4 062152Z 12007KT 34/14 A3001 RMK A01 T03380144  RH  031%=      5-min Rain = 0
KPD4 062153Z 12005KT 34/15 A3001 RMK A01 T03380145  RH  031%=      5-min Rain = 0
KPD4 062154Z 11006KT 34/14 A3001 RMK A01 T03370141  RH  031%=      5-min Rain = 0
KPD4 062155Z 10007KT 33/14 A3001 RMK A01 T03340143  RH  032%=      5-min Rain = 0
KPD4 062156Z 06009KT 33/14 A3001 RMK A01 T03340142  RH  031%=      5-min Rain = 0
KPD4 062157Z 04006KT 33/14 A3001 RMK A01 T03310141  RH  032%=      5-min Rain = 0
KPD4 062158Z 07004KT 33/14 A3001 RMK A01 T03290143  RH  033%=      5-min Rain = 0
KPD4 062159Z 08007G13KT 33/15 A3001 RMK A01 T03300145  RH  033%=      5-min Rain = 0
KPD4 062200Z 08009KT 34/15 A3001 RMK A01 T03360149  RH  033%=      5-min Rain = 0
KPD4 062201Z 08006KT 34/15 A3001 RMK A01 T03400148  RH  032%=      5-min Rain = 0
KPD4 062202Z 13006KT 34/15 A3001 RMK A01 T03410149  RH  032%=      5-min Rain = 0
KPD4 062203Z 11007KT 34/15 A3001 RMK A01 T03400154  RH  033%=      5-min Rain = 0
KPD4 062204Z 09008KT 34/15 A3001 RMK A01 T03390149  RH  032%=      5-min Rain = 0
KPD4 062205Z 11011KT 34/15 A3001 RMK A01 T03370150  RH  033%=      5-min Rain = 0
KPD4 062206Z 10009KT 34/15 A3001 RMK A01 T03360150  RH  033%=      5-min Rain = 0
KPD4 062207Z 12011KT 34/15 A3001 RMK A01 T03360151  RH  033%=      5-min Rain = 0
KPD4 062208Z 13009KT 34/15 A3001 RMK A01 T03370149  RH  032%=      5-min Rain = 0
KPD4 062209Z 12007KT 34/15 A3001 RMK A01 T03350150  RH  033%=      5-min Rain = 0
KPD4 062210Z 10005KT 34/15 A3001 RMK A01 T03360154  RH  034%=      5-min Rain = 0
KPD4 062211Z 11006KT 34/15 A3001 RMK A01 T03380151  RH  033%=      5-min Rain = 0
KPD4 062212Z 12009KT 34/15 A3001 RMK A01 T03380150  RH  032%=      5-min Rain = 0
KPD4 062213Z 12006KT 33/15 A3001 RMK A01 T03340148  RH  033%=      5-min Rain = 0
KPD4 062214Z 10008KT 33/15 A3001 RMK A01 T03320150  RH  033%=      5-min Rain = 0
KPD4 062215Z 09008KT 33/15 A3001 RMK A01 T03330148  RH  033%=      5-min Rain = 0
KPD4 062216Z 07005KT 33/15 A3001 RMK A01 T03320147  RH  033%=      5-min Rain = 0
KPD4 062217Z 09006KT 33/15 A3001 RMK A01 T03320150  RH  033%=      5-min Rain = 0
KPD4 062218Z 11007KT 33/15 A3001 RMK A01 T03320153  RH  034%=      5-min Rain = 0
KPD4 062219Z 13007KT 34/16 A3001 RMK A01 T03350156  RH  034%=      5-min Rain = 0
KPD4 062220Z 13006KT 34/15 A3001 RMK A01 T03380153  RH  033%=      5-min Rain = 0
KPD4 062221Z 11007KT 34/15 A3001 RMK A01 T03380154  RH  033%=      5-min Rain = 0
KPD4 062222Z 09006KT 34/15 A3001 RMK A01 T03370153  RH  033%=      5-min Rain = 0
KPD4 062223Z 11005KT 34/15 A3001 RMK A01 T03360151  RH  033%=      5-min Rain = 0
KPD4 062224Z 11006KT 33/15 A3001 RMK A01 T03330151  RH  033%=      5-min Rain = 0
KPD4 062225Z 11005KT 33/15 A3001 RMK A01 T03310150  RH  034%=      5-min Rain = 0
KPD4 062226Z 10005KT 33/15 A3001 RMK A01 T03290149  RH  034%=      5-min Rain = 0
KPD4 062227Z 11004KT 33/15 A3001 RMK A01 T03290152  RH  035%=      5-min Rain = 0
KPD4 062228Z 12009KT 33/16 A3001 RMK A01 T03320155  RH  034%=      5-min Rain = 0
KPD4 062229Z 14011KT 34/16 A3001 RMK A01 T03370155  RH  034%=      5-min Rain = 0
KPD4 062230Z 13012KT 34/15 A3001 RMK A01 T03400154  RH  033%=      5-min Rain = 0
KPD4 062231Z 12010KT 34/15 A3001 RMK A01 T03400149  RH  032%=      5-min Rain = 0
KPD4 062232Z 12010KT 34/15 A3001 RMK A01 T03410150  RH  032%=      5-min Rain = 0
KPD4 062233Z 12010KT 34/15 A3001 RMK A01 T03400147  RH  031%=      5-min Rain = 0
KPD4 062234Z 11010KT 34/14 A3001 RMK A01 T03360144  RH  032%=      5-min Rain = 0
KPD4 062235Z 09009KT 33/14 A3001 RMK A01 T03290140  RH  032%=      5-min Rain = 0
KPD4 062236Z 09009KT 33/14 A3001 RMK A01 T03250142  RH  033%=      5-min Rain = 0
KPD4 062237Z 09009KT 32/14 A3001 RMK A01 T03230140  RH  033%=      5-min Rain = 0
KPD4 062238Z 10007KT 32/14 A3001 RMK A01 T03210140  RH  033%=      5-min Rain = 0
KPD4 062239Z 10008KT 32/14 A3001 RMK A01 T03200141  RH  034%=      5-min Rain = 0
KPD4 062240Z 10010KT 32/14 A3001 RMK A01 T03190143  RH  034%=      5-min Rain = 0
KPD4 062241Z 10008KT 32/14 A3001 RMK A01 T03190141  RH  034%=      5-min Rain = 0
KPD4 062242Z 11007KT 32/14 A3001 RMK A01 T03190142  RH  034%=      5-min Rain = 0
KPD4 062243Z 11005KT 32/14 A3001 RMK A01 T03190141  RH  034%=      5-min Rain = 0
KPD4 062244Z 12005KT 32/14 A3001 RMK A01 T03190140  RH  034%=      5-min Rain = 0
KPD4 062245Z 12004KT 32/14 A3001 RMK A01 T03190141  RH  034%=      5-min Rain = 0
KPD4 062246Z 11003KT 32/14 A3001 RMK A01 T03180142  RH  034%=      5-min Rain = 0
KPD4 062247Z 09003KT 32/14 A3001 RMK A01 T03180140  RH  034%=      5-min Rain = 0
KPD4 062248Z 10004KT 32/14 A3001 RMK A01 T03170140  RH  034%=      5-min Rain = 0
KPD4 062249Z 11003KT 32/14 A3001 RMK A01 T03170140  RH  034%=      5-min Rain = 0
KPD4 062250Z 13003KT 32/14 A3001 RMK A01 T03180142  RH  035%=      5-min Rain = 0
KPD4 062251Z 12003KT 32/14 A3001 RMK A01 T03210144  RH  034%=      5-min Rain = 0
KPD4 062252Z 11006KT 33/15 A3001 RMK A01 T03250147  RH  034%=      5-min Rain = 0
KPD4 062253Z 11006KT 33/15 A3001 RMK A01 T03280145  RH  033%=      5-min Rain = 0
KPD4 062254Z 10003KT 33/14 A3001 RMK A01 T03290143  RH  033%=      5-min Rain = 0
KPD4 062255Z 11002KT 33/14 A3001 RMK A01 T03290143  RH  033%=      5-min Rain = 0
KPD4 062256Z 11002KT 33/14 A30 RMK A01 T03290144  RH  033%=      5-min Rain = 0
KPD4 062257Z 11001KT 33/14 A30 RMK A01 T03300139  RH  032%=      5-min Rain = 0
KPD4 062258Z 00000KT 33/14 A30 RMK A01 T03310140  RH  032%=      5-min Rain = 0
KPD4 062259Z 27001KT 33/14 A30 RMK A01 T03330140  RH  031%=      5-min Rain = 0
KPD4 062300Z 15001KT 33/14 A30 RMK A01 T03340141  RH  031%=      5-min Rain = 0
KPD4 062301Z 15002KT 33/15 A30 RMK A01 T03340145  RH  032%=      5-min Rain = 0
KPD4 062302Z 17005G10KT 34/15 A30 RMK A01 T03350146  RH  032%=      5-min Rain = 0
KPD4 062303Z 16008KT 34/15 A30 RMK A01 T03350149  RH  033%=      5-min Rain = 0
KPD4 062304Z 15008KT 33/15 A30 RMK A01 T03340148  RH  033%=      5-min Rain = 0
KPD4 062305Z 13006KT 33/15 A30 RMK A01 T03320151  RH  034%=      5-min Rain = 0
KPD4 062306Z 12008KT 33/15 A30 RMK A01 T03330152  RH  034%=      5-min Rain = 0
KPD4 062307Z 11009G14KT 33/15 A30 RMK A01 T03330152  RH  034%=      5-min Rain = 0
KPD4 062308Z 12011KT 33/15 A30 RMK A01 T03340152  RH  034%=      5-min Rain = 0
KPD4 062309Z 13007KT 33/15 A30 RMK A01 T03340152  RH  033%=      5-min Rain = 0
KPD4 062310Z 13005KT 33/15 A30 RMK A01 T03340152  RH  034%=      5-min Rain = 0
KPD4 062311Z 16006KT 34/15 A30 RMK A01 T03350152  RH  033%=      5-min Rain = 0
KPD4 062312Z 12006KT 33/15 A30 RMK A01 T03340150  RH  033%=      5-min Rain = 0
KPD4 062313Z 10007KT 33/15 A30 RMK A01 T03330147  RH  033%=      5-min Rain = 0
KPD4 062314Z 09006KT 33/14 A30 RMK A01 T03310141  RH  032%=      5-min Rain = 0
KPD4 062315Z 09006KT 33/14 A30 RMK A01 T03310142  RH  032%=      5-min Rain = 0
KPD4 062316Z 12008KT 33/14 A30 RMK A01 T03310142  RH  032%=      5-min Rain = 0
KPD4 062317Z 12008KT 33/14 A30 RMK A01 T03290139  RH  032%=      5-min Rain = 0
KPD4 062318Z 12007KT 33/14 A30 RMK A01 T03260138  RH  032%=      5-min Rain = 0
KPD4 062319Z 13006KT 33/14 A30 RMK A01 T03250139  RH  032%=      5-min Rain = 0
KPD4 062320Z 12007KT 32/14 A30 RMK A01 T03240139  RH  033%=      5-min Rain = 0
KPD4 062321Z 10006KT 32/14 A30 RMK A01 T03230139  RH  033%=      5-min Rain = 0
KPD4 062322Z 10004KT 32/14 A30 RMK A01 T03210139  RH  033%=      5-min Rain = 0
KPD4 062323Z 10003KT 32/14 A30 RMK A01 T03190140  RH  034%=      5-min Rain = 0
KPD4 062324Z 10004KT 32/14 A30 RMK A01 T03200142  RH  034%=      5-min Rain = 0
KPD4 062325Z 11006KT 32/14 A30 RMK A01 T03230144  RH  034%=      5-min Rain = 0
KPD4 062326Z 12008KT 33/14 A30 RMK A01 T03260143  RH  033%=      5-min Rain = 0
KPD4 062327Z 13008KT 33/14 A30 RMK A01 T03280144  RH  033%=      5-min Rain = 0
KPD4 062328Z 13007KT 33/14 A30 RMK A01 T03280141  RH  032%=      5-min Rain = 0
KPD4 062329Z 12006KT 33/14 A30 RMK A01 T03270142  RH  033%=      5-min Rain = 0
KPD4 062330Z 12005KT 33/14 A30 RMK A01 T03280143  RH  033%=      5-min Rain = 0
KPD4 062331Z 13005KT 33/14 A30 RMK A01 T03290144  RH  033%=      5-min Rain = 0
KPD4 062332Z 13006KT 33/15 A30 RMK A01 T03310145  RH  033%=      5-min Rain = 0
KPD4 062333Z 13006KT 33/15 A30 RMK A01 T03310145  RH  033%=      5-min Rain = 0
KPD4 062334Z 13008G13KT 33/15 A30 RMK A01 T03320148  RH  033%=      5-min Rain = 0
KPD4 062335Z 13005KT 33/15 A30 RMK A01 T03320148  RH  033%=      5-min Rain = 0
KPD4 062336Z 13005KT 33/15 A30 RMK A01 T03320147  RH  033%=      5-min Rain = 0
KPD4 062337Z 12006KT 33/15 A30 RMK A01 T03320147  RH  033%=      5-min Rain = 0
KPD4 062338Z 13004KT 33/15 A30 RMK A01 T03310146  RH  033%=      5-min Rain = 0
KPD4 062339Z 13007KT 33/15 A30 RMK A01 T03300145  RH  033%=      5-min Rain = 0
KPD4 062340Z 13008KT 33/15 A30 RMK A01 T03300146  RH  033%=      5-min Rain = 0
KPD4 062341Z 13008KT 33/15 A30 RMK A01 T03300148  RH  033%=      5-min Rain = 0
KPD4 062342Z 13010KT 33/15 A30 RMK A01 T03300147  RH  033%=      5-min Rain = 0
KPD4 062343Z 12009KT 33/15 A30 RMK A01 T03310145  RH  033%=      5-min Rain = 0
KPD4 062344Z 11007KT 33/14 A30 RMK A01 T03300143  RH  032%=      5-min Rain = 0
KPD4 062345Z 12006KT 33/15 A30 RMK A01 T03280145  RH  033%=      5-min Rain = 0
KPD4 062346Z 13006KT 33/15 A2999 RMK A01 T03260145  RH  033%=      5-min Rain = 0
KPD4 062347Z 11004KT 33/15 A2999 RMK A01 T03260145  RH  034%=      5-min Rain = 0
KPD4 062348Z 12004KT 33/14 A2999 RMK A01 T03260144  RH  033%=      5-min Rain = 0
KPD4 062349Z 12007KT 33/15 A2999 RMK A01 T03280149  RH  034%=      5-min Rain = 0
KPD4 062350Z 10009KT 33/15 A2999 RMK A01 T03300150  RH  034%=      5-min Rain = 0
KPD4 062351Z 09009KT 33/15 A2999 RMK A01 T03310148  RH  033%=      5-min Rain = 0
KPD4 062352Z 09007KT 33/15 A2999 RMK A01 T03300148  RH  033%=      5-min Rain = 0
KPD4 062353Z 13005KT 33/15 A2999 RMK A01 T03290150  RH  034%=      5-min Rain = 0
KPD4 062354Z 16006KT 33/15 A2999 RMK A01 T03300149  RH  034%=      5-min Rain = 0
KPD4 062355Z 14007KT 33/15 A2999 RMK A01 T03300148  RH  033%=      5-min Rain = 0
KPD4 062356Z 15007KT 33/15 A2999 RMK A01 T03290148  RH  034%=      5-min Rain = 0
KPD4 062357Z 16008KT 33/15 A2999 RMK A01 T03290149  RH  034%=      5-min Rain = 0
KPD4 062358Z 15009KT 33/15 A2999 RMK A01 T03290151  RH  034%=      5-min Rain = 0
KPD4 062359Z 16009KT 33/15 A2999 RMK A01 T03290150  RH  034%=      5-min Rain = 0
KPD4 070000Z 18008KT 33/15 A2999 RMK A01 T03280149  RH  034%=      5-min Rain = 0
KPD4 070001Z 16007KT 33/15 A2999 RMK A01 T03270150  RH  034%=      5-min Rain = 0
KPD4 070002Z 14007KT 33/15 A2999 RMK A01 T03260152  RH  035%=      5-min Rain = 0
KPD4 070003Z 13009KT 33/15 A2999 RMK A01 T03290154  RH  035%=      5-min Rain = 0
KPD4 070004Z 15010KT 33/15 A2999 RMK A01 T03310154  RH  035%=      5-min Rain = 0
KPD4 070005Z 14012KT 33/15 A2999 RMK A01 T03310151  RH  034%=      5-min Rain = 0
KPD4 070006Z 15010KT 33/15 A2999 RMK A01 T03290149  RH  034%=      5-min Rain = 0
KPD4 070007Z 15009KT 33/15 A2999 RMK A01 T03270150  RH  034%=      5-min Rain = 0
KPD4 070008Z 16008KT 33/15 A2999 RMK A01 T03260147  RH  034%=      5-min Rain = 0
KPD4 070009Z 15008KT 33/15 A2999 RMK A01 T03250147  RH  034%=      5-min Rain = 0
KPD4 070010Z 14009KT 32/15 A2999 RMK A01 T03240148  RH  034%=      5-min Rain = 0
KPD4 070011Z 13008KT 32/15 A2999 RMK A01 T03240148  RH  035%=      5-min Rain = 0
KPD4 070012Z 13008KT 33/15 A2999 RMK A01 T03250150  RH  035%=      5-min Rain = 0
KPD4 070013Z 13007KT 33/15 A2999 RMK A01 T03250148  RH  034%=      5-min Rain = 0
KPD4 070014Z 13006KT 33/15 A2999 RMK A01 T03250146  RH  034%=      5-min Rain = 0
KPD4 070015Z 14006KT 32/15 A2999 RMK A01 T03240145  RH  034%=      5-min Rain = 0
KPD4 070016Z 14006KT 32/15 A2999 RMK A01 T03240149  RH  035%=      5-min Rain = 0
KPD4 070017Z 15007KT 32/15 A2999 RMK A01 T03240149  RH  035%=      5-min Rain = 0
KPD4 070018Z 16008KT 32/15 A2999 RMK A01 T03240149  RH  035%=      5-min Rain = 0
KPD4 070019Z 15007KT 33/15 A2999 RMK A01 T03250151  RH  035%=      5-min Rain = 0
KPD4 070020Z 12008KT 33/15 A2999 RMK A01 T03250151  RH  035%=      5-min Rain = 0
KPD4 070021Z 13009KT 33/15 A2999 RMK A01 T03260151  RH  035%=      5-min Rain = 0
KPD4 070022Z 14011KT 33/15 A2999 RMK A01 T03250152  RH  035%=      5-min Rain = 0
KPD4 070023Z 15010KT 33/15 A2999 RMK A01 T03250151  RH  035%=      5-min Rain = 0
KPD4 070024Z 15008KT 33/15 A2999 RMK A01 T03250149  RH  034%=      5-min Rain = 0
KPD4 070025Z 15009KT 33/15 A2999 RMK A01 T03250149  RH  035%=      5-min Rain = 0
KPD4 070026Z 14009KT 32/15 A2999 RMK A01 T03240148  RH  035%=      5-min Rain = 0
KPD4 070027Z 14007KT 32/15 A2999 RMK A01 T03240148  RH  035%=      5-min Rain = 0
KPD4 070028Z 12008KT 33/15 A2999 RMK A01 T03250149  RH  035%=      5-min Rain = 0
KPD4 070029Z 12008KT 32/15 A2999 RMK A01 T03240147  RH  034%=      5-min Rain = 0
KPD4 070030Z 13008KT 33/15 A2999 RMK A01 T03250149  RH  035%=      5-min Rain = 0
KPD4 070031Z 13011KT 33/15 A2999 RMK A01 T03250150  RH  035%=      5-min Rain = 0
KPD4 070032Z 14012KT 33/15 A2999 RMK A01 T03250150  RH  035%=      5-min Rain = 0
KPD4 070033Z 13010KT 33/15 A2999 RMK A01 T03250149  RH  035%=      5-min Rain = 0
KPD4 070034Z 13010KT 32/15 A2999 RMK A01 T03240150  RH  035%=      5-min Rain = 0
KPD4 070035Z 16008KT 32/15 A2999 RMK A01 T03230150  RH  035%=      5-min Rain = 0
KPD4 070036Z 15010KT 32/15 A2999 RMK A01 T03240153  RH  036%=      5-min Rain = 0
KPD4 070037Z 15009KT 32/15 A2999 RMK A01 T03240150  RH  035%=      5-min Rain = 0
KPD4 070038Z 15008KT 32/15 A2999 RMK A01 T03240151  RH  035%=      5-min Rain = 0
KPD4 070039Z 15007KT 32/15 A2999 RMK A01 T03240152  RH  035%=      5-min Rain = 0
KPD4 070040Z 12010KT 32/15 A2999 RMK A01 T03230152  RH  036%=      5-min Rain = 0
KPD4 070041Z 12009KT 32/15 A2999 RMK A01 T03230154  RH  036%=      5-min Rain = 0
KPD4 070042Z 12009KT 32/15 A2999 RMK A01 T03230154  RH  036%=      5-min Rain = 0
KPD4 070043Z 12011KT 32/16 A2999 RMK A01 T03230155  RH  036%=      5-min Rain = 0
KPD4 070044Z 11010KT 32/15 A2999 RMK A01 T03220152  RH  036%=      5-min Rain = 0
KPD4 070045Z 12010KT 32/15 A2999 RMK A01 T03210152  RH  036%=      5-min Rain = 0
KPD4 070046Z 12010KT 32/16 A2999 RMK A01 T03210155  RH  037%=      5-min Rain = 0
KPD4 070047Z 12011KT 32/16 A2999 RMK A01 T03210155  RH  037%=      5-min Rain = 0
KPD4 070048Z 12010KT 32/15 A2999 RMK A01 T03190154  RH  037%=      5-min Rain = 0
KPD4 070049Z 12009KT 32/15 A2999 RMK A01 T03190154  RH  037%=      5-min Rain = 0
KPD4 070050Z 11010KT 32/15 A2999 RMK A01 T03180154  RH  037%=      5-min Rain = 0
KPD4 070051Z 11011KT 32/15 A2999 RMK A01 T03180152  RH  037%=      5-min Rain = 0
KPD4 070052Z 13009KT 32/15 A2999 RMK A01 T03170154  RH  037%=      5-min Rain = 0
KPD4 070053Z 13010KT 32/15 A2999 RMK A01 T03160153  RH  037%=      5-min Rain = 0
KPD4 070054Z 14009KT 32/15 A2999 RMK A01 T03160153  RH  037%=      5-min Rain = 0
KPD4 070055Z 14009KT 32/15 A2999 RMK A01 T03160152  RH  037%=      5-min Rain = 0
KPD4 070056Z 13007KT 32/15 A2999 RMK A01 T03160151  RH  037%=      5-min Rain = 0
KPD4 070057Z 12009KT 32/15 A2999 RMK A01 T03160153  RH  037%=      5-min Rain = 0
KPD4 070058Z 11010KT 32/15 A2999 RMK A01 T03160151  RH  037%=      5-min Rain = 0
KPD4 070059Z 10010KT 32/15 A30 RMK A01 T03160152  RH  037%=      5-min Rain = 0
KPD4 070100Z 10012KT 32/15 A2999 RMK A01 T03150154  RH  038%=      5-min Rain = 0
KPD4 070101Z 10011KT 31/16 A30 RMK A01 T03140156  RH  039%=      5-min Rain = 0
KPD4 070102Z 10011KT 31/16 A30 RMK A01 T03130157  RH  039%=      5-min Rain = 0
KPD4 070103Z 11010KT 31/16 A30 RMK A01 T03120158  RH  039%=      5-min Rain = 0
KPD4 070104Z 11011KT 31/16 A30 RMK A01 T03120159  RH  040%=      5-min Rain = 0
KPD4 070105Z 12013KT 31/16 A30 RMK A01 T03120160  RH  040%=      5-min Rain = 0
KPD4 070106Z 12013KT 31/16 A30 RMK A01 T03110159  RH  040%=      5-min Rain = 0
KPD4 070107Z 11012KT 31/16 A30 RMK A01 T03100159  RH  040%=      5-min Rain = 0
KPD4 070108Z 11012KT 31/16 A30 RMK A01 T03090159  RH  040%=      5-min Rain = 0
KPD4 070109Z 11010KT 31/16 A30 RMK A01 T03090160  RH  041%=      5-min Rain = 0
KPD4 070110Z 11011KT 31/16 A30 RMK A01 T03090161  RH  041%=      5-min Rain = 0
KPD4 070111Z 12011KT 31/16 A30 RMK A01 T03080161  RH  041%=      5-min Rain = 0
KPD4 070112Z 12013KT 31/16 A30 RMK A01 T03080162  RH  041%=      5-min Rain = 0
KPD4 070113Z 11011KT 31/16 A30 RMK A01 T03070162  RH  042%=      5-min Rain = 0
KPD4 070114Z 11010KT 31/16 A30 RMK A01 T03060163  RH  042%=      5-min Rain = 0
KPD4 070115Z 10009KT 31/16 A30 RMK A01 T03060164  RH  043%=      5-min Rain = 0
KPD4 070116Z 11009KT 31/17 A30 RMK A01 T03050165  RH  043%=      5-min Rain = 0
KPD4 070117Z 12009KT 30/17 A30 RMK A01 T03040166  RH  043%=      5-min Rain = 0
KPD4 070118Z 12010KT 30/17 A30 RMK A01 T03030166  RH  043%=      5-min Rain = 0
KPD4 070119Z 12009KT 30/17 A30 RMK A01 T03030165  RH  044%=      5-min Rain = 0
KPD4 070120Z 12009KT 30/17 A30 RMK A01 T03030166  RH  044%=      5-min Rain = 0
KPD4 070121Z 12009KT 30/17 A30 RMK A01 T03020167  RH  044%=      5-min Rain = 0
KPD4 070122Z 12012KT 30/17 A30 RMK A01 T03010168  RH  045%=      5-min Rain = 0
KPD4 070123Z 12012KT 30/17 A30 RMK A01 T03010168  RH  045%=      5-min Rain = 0
KPD4 070124Z 12012KT 30/17 A30 RMK A01 T03000169  RH  045%=      5-min Rain = 0
KPD4 070125Z 11012KT 30/17 A30 RMK A01 T03000169  RH  045%=      5-min Rain = 0
KPD4 070126Z 12011KT 30/17 A30 RMK A01 T03000169  RH  046%=      5-min Rain = 0
KPD4 070127Z 12011KT 30/17 A30 RMK A01 T02990170  RH  046%=      5-min Rain = 0
KPD4 070128Z 12011KT 30/17 A30 RMK A01 T02990171  RH  046%=      5-min Rain = 0
KPD4 070129Z 12010KT 30/17 A30 RMK A01 T02990171  RH  046%=      5-min Rain = 0
KPD4 070130Z 13009KT 30/17 A3001 RMK A01 T02980171  RH  046%=      5-min Rain = 0
KPD4 070131Z 13008KT 30/17 A3001 RMK A01 T02970172  RH  047%=      5-min Rain = 0
KPD4 070132Z 13011KT 30/17 A3001 RMK A01 T02970172  RH  047%=      5-min Rain = 0
KPD4 070133Z 12011KT 30/17 A3001 RMK A01 T02960172  RH  047%=      5-min Rain = 0
KPD4 070134Z 13014KT 30/17 A3001 RMK A01 T02960171  RH  047%=      5-min Rain = 0
KPD4 070135Z 12013KT 30/17 A3001 RMK A01 T02960170  RH  047%=      5-min Rain = 0
KPD4 070136Z 12013KT 30/17 A3001 RMK A01 T02960170  RH  047%=      5-min Rain = 0
KPD4 070137Z 12011KT 30/17 A3001 RMK A01 T02960172  RH  047%=      5-min Rain = 0
KPD4 070138Z 12011KT 30/17 A3001 RMK A01 T02950171  RH  047%=      5-min Rain = 0
KPD4 070139Z 12011KT 29/17 A3001 RMK A01 T02940171  RH  047%=      5-min Rain = 0
KPD4 070140Z 12010KT 29/17 A3001 RMK A01 T02940170  RH  047%=      5-min Rain = 0
KPD4 070141Z 12011KT 29/17 A3001 RMK A01 T02940171  RH  048%=      5-min Rain = 0
KPD4 070142Z 12011KT 29/17 A3001 RMK A01 T02930171  RH  048%=      5-min Rain = 0
KPD4 070143Z 12012KT 29/17 A3001 RMK A01 T02930171  RH  048%=      5-min Rain = 0
KPD4 070144Z 12013KT 29/17 A3001 RMK A01 T02920171  RH  048%=      5-min Rain = 0
KPD4 070145Z 13011KT 29/17 A3001 RMK A01 T02920171  RH  048%=      5-min Rain = 0
KPD4 070146Z 13012KT 29/17 A3001 RMK A01 T02910172  RH  048%=      5-min Rain = 0
KPD4 070147Z 12011KT 29/17 A3001 RMK A01 T02900171  RH  049%=      5-min Rain = 0
KPD4 070148Z 12012KT 29/17 A3001 RMK A01 T02890171  RH  049%=      5-min Rain = 0
KPD4 070149Z 13012KT 29/17 A3001 RMK A01 T02890171  RH  049%=      5-min Rain = 0
KPD4 070150Z 12010KT 29/17 A3001 RMK A01 T02890172  RH  049%=      5-min Rain = 0
KPD4 070151Z 13010KT 29/17 A3001 RMK A01 T02880172  RH  049%=      5-min Rain = 0
KPD4 070152Z 13011KT 29/17 A3001 RMK A01 T02880171  RH  049%=      5-min Rain = 0
KPD4 070153Z 13014KT 29/17 A3001 RMK A01 T02870170  RH  049%=      5-min Rain = 0
KPD4 070154Z 12012KT 29/17 A3002 RMK A01 T02880170  RH  049%=      5-min Rain = 0
KPD4 070155Z 12010KT 29/17 A3002 RMK A01 T02880170  RH  049%=      5-min Rain = 0
KPD4 070156Z 13012KT 29/17 A3002 RMK A01 T02880170  RH  049%=      5-min Rain = 0
KPD4 070157Z 13013KT 29/17 A3002 RMK A01 T02870170  RH  049%=      5-min Rain = 0
KPD4 070158Z 12013KT 29/17 A3002 RMK A01 T02870169  RH  049%=      5-min Rain = 0
KPD4 070159Z 12011KT 29/17 A3002 RMK A01 T02870170  RH  049%=      5-min Rain = 0
KPD4 070200Z 12012KT 29/17 A3002 RMK A01 T02870170  RH  049%=      5-min Rain = 0
KPD4 070201Z 12011KT 29/17 A3002 RMK A01 T02860171  RH  050%=      5-min Rain = 0
KPD4 070202Z 12012KT 29/17 A3002 RMK A01 T02860171  RH  050%=      5-min Rain = 0
KPD4 070203Z 12011KT 29/17 A3002 RMK A01 T02850171  RH  050%=      5-min Rain = 0
KPD4 070204Z 13011KT 28/17 A3002 RMK A01 T02840172  RH  051%=      5-min Rain = 0
KPD4 070205Z 12012KT 28/17 A3002 RMK A01 T02830172  RH  051%=      5-min Rain = 0
KPD4 070206Z 12011KT 28/17 A3002 RMK A01 T02830172  RH  051%=      5-min Rain = 0
KPD4 070207Z 12010KT 28/17 A3002 RMK A01 T02820172  RH  051%=      5-min Rain = 0
KPD4 070208Z 12011KT 28/17 A3002 RMK A01 T02810172  RH  052%=      5-min Rain = 0
KPD4 070209Z 12011KT 28/17 A3002 RMK A01 T02810173  RH  052%=      5-min Rain = 0
KPD4 070210Z 12011KT 28/17 A3002 RMK A01 T02810173  RH  052%=      5-min Rain = 0
KPD4 070211Z 12012KT 28/17 A3003 RMK A01 T02800173  RH  052%=      5-min Rain = 0
KPD4 070212Z 12012KT 28/17 A3003 RMK A01 T02800172  RH  052%=      5-min Rain = 0
KPD4 070213Z 12012KT 28/17 A3003 RMK A01 T02810173  RH  052%=      5-min Rain = 0
KPD4 070214Z 12012KT 28/17 A3003 RMK A01 T02800173  RH  052%=      5-min Rain = 0
KPD4 070215Z 12012KT 28/17 A3003 RMK A01 T02790173  RH  052%=      5-min Rain = 0
KPD4 070216Z 12011KT 28/17 A3003 RMK A01 T02790173  RH  053%=      5-min Rain = 0
KPD4 070217Z 12013KT 28/17 A3003 RMK A01 T02780173  RH  053%=      5-min Rain = 0
KPD4 070218Z 12010KT 28/17 A3003 RMK A01 T02780173  RH  053%=      5-min Rain = 0
KPD4 070219Z 12013KT 28/17 A3003 RMK A01 T02780173  RH  053%=      5-min Rain = 0
KPD4 070220Z 12012KT 28/17 A3003 RMK A01 T02780173  RH  053%=      5-min Rain = 0
KPD4 070221Z 12011KT 28/17 A3003 RMK A01 T02770174  RH  053%=      5-min Rain = 0
KPD4 070222Z 12012KT 28/17 A3003 RMK A01 T02760174  RH  054%=      5-min Rain = 0
KPD4 070223Z 12013KT 28/17 A3003 RMK A01 T02760174  RH  054%=      5-min Rain = 0
KPD4 070224Z 12011KT 28/17 A3003 RMK A01 T02760174  RH  054%=      5-min Rain = 0
KPD4 070225Z 13011KT 28/18 A3003 RMK A01 T02760175  RH  054%=      5-min Rain = 0
KPD4 070226Z 12011KT 28/17 A3003 RMK A01 T02760174  RH  054%=      5-min Rain = 0
KPD4 070227Z 12011KT 28/17 A3003 RMK A01 T02750174  RH  054%=      5-min Rain = 0
KPD4 070228Z 12009KT 27/17 A3003 RMK A01 T02740174  RH  055%=      5-min Rain = 0
KPD4 070229Z 12010KT 27/18 A3003 RMK A01 T02730175  RH  055%=      5-min Rain = 0
KPD4 070230Z 12010KT 27/18 A3003 RMK A01 T02720175  RH  055%=      5-min Rain = 0
KPD4 070231Z 13010KT 27/18 A3003 RMK A01 T02720175  RH  055%=      5-min Rain = 0
KPD4 070232Z 13010KT 27/18 A3003 RMK A01 T02720175  RH  055%=      5-min Rain = 0
KPD4 070233Z 13009KT 27/18 A3003 RMK A01 T02720175  RH  055%=      5-min Rain = 0
KPD4 070234Z 13009KT 27/18 A3003 RMK A01 T02720175  RH  056%=      5-min Rain = 0
KPD4 070235Z 13010KT 27/18 A3003 RMK A01 T02710175  RH  056%=      5-min Rain = 0
KPD4 070236Z 13010KT 27/18 A3003 RMK A01 T02710175  RH  056%=      5-min Rain = 0
KPD4 070237Z 13009KT 27/18 A3003 RMK A01 T02700175  RH  056%=      5-min Rain = 0
KPD4 070238Z 13011KT 27/17 A3004 RMK A01 T02700174  RH  056%=      5-min Rain = 0
KPD4 070239Z 13011KT 27/17 A3004 RMK A01 T02700174  RH  056%=      5-min Rain = 0
KPD4 070240Z 13009KT 27/17 A3004 RMK A01 T02700174  RH  056%=      5-min Rain = 0
KPD4 070241Z 13009KT 27/18 A3004 RMK A01 T02700175  RH  056%=      5-min Rain = 0
KPD4 070242Z 13010KT 27/18 A3004 RMK A01 T02690175  RH  056%=      5-min Rain = 0
KPD4 070243Z 13011KT 27/17 A3003 RMK A01 T02680174  RH  056%=      5-min Rain = 0
KPD4 070244Z 13009KT 27/17 A3003 RMK A01 T02690174  RH  056%=      5-min Rain = 0
KPD4 070245Z 13009KT 27/17 A3003 RMK A01 T02680174  RH  056%=      5-min Rain = 0
KPD4 070246Z 13008KT 27/17 A3004 RMK A01 T02680174  RH  056%=      5-min Rain = 0
KPD4 070247Z 14009KT 27/18 A3004 RMK A01 T02670175  RH  057%=      5-min Rain = 0
KPD4 070248Z 14009KT 27/18 A3004 RMK A01 T02660175  RH  057%=      5-min Rain = 0
KPD4 070249Z 14009KT 27/17 A3004 RMK A01 T02650174  RH  057%=      5-min Rain = 0
KPD4 070250Z 13010KT 26/18 A3004 RMK A01 T02640175  RH  058%=      5-min Rain = 0
KPD4 070251Z 13010KT 26/18 A3004 RMK A01 T02640175  RH  058%=      5-min Rain = 0
KPD4 070252Z 13009KT 26/18 A3004 RMK A01 T02640175  RH  058%=      5-min Rain = 0
KPD4 070253Z 13009KT 26/18 A3004 RMK A01 T02640175  RH  058%=      5-min Rain = 0
KPD4 070254Z 13010KT 26/18 A3004 RMK A01 T02630175  RH  058%=      5-min Rain = 0
KPD4 070255Z 13010KT 26/18 A3004 RMK A01 T02630175  RH  058%=      5-min Rain = 0
KPD4 070256Z 13010KT 26/18 A3004 RMK A01 T02630175  RH  058%=      5-min Rain = 0
KPD4 070257Z 14009KT 26/17 A3004 RMK A01 T02630174  RH  058%=      5-min Rain = 0
KPD4 070258Z 14009KT 26/17 A3004 RMK A01 T02630174  RH  058%=      5-min Rain = 0
KPD4 070259Z 14010KT 26/17 A3004 RMK A01 T02620173  RH  058%=      5-min Rain = 0
KPD4 070300Z 14010KT 26/17 A3004 RMK A01 T02620173  RH  058%=      5-min Rain = 0
KPD4 070301Z 14009KT 26/17 A3004 RMK A01 T02620173  RH  058%=      5-min Rain = 0
KPD4 070302Z 14008KT 26/17 A3004 RMK A01 T02620173  RH  058%=      5-min Rain = 0
KPD4 070303Z 14009KT 26/17 A3004 RMK A01 T02610173  RH  058%=      5-min Rain = 0
KPD4 070304Z 14008KT 26/17 A3004 RMK A01 T02610172  RH  058%=      5-min Rain = 0
KPD4 070305Z 14008KT 26/17 A3004 RMK A01 T02610172  RH  058%=      5-min Rain = 0
KPD4 070306Z 14009KT 26/17 A3004 RMK A01 T02600172  RH  058%=      5-min Rain = 0
KPD4 070307Z 14009KT 26/17 A3004 RMK A01 T02600172  RH  058%=      5-min Rain = 0
KPD4 070308Z 14009KT 26/17 A3004 RMK A01 T02600172  RH  058%=      5-min Rain = 0
KPD4 070309Z 15008KT 26/17 A3004 RMK A01 T02600171  RH  058%=      5-min Rain = 0
KPD4 070310Z 15009KT 26/17 A3004 RMK A01 T02600171  RH  058%=      5-min Rain = 0
KPD4 070311Z 15009KT 26/17 A3004 RMK A01 T02600171  RH  058%=      5-min Rain = 0
KPD4 070312Z 16008KT 26/17 A3004 RMK A01 T02600171  RH  058%=      5-min Rain = 0
KPD4 070313Z 16009KT 26/17 A3004 RMK A01 T02600171  RH  058%=      5-min Rain = 0
KPD4 070314Z 15008KT 26/17 A3004 RMK A01 T02600171  RH  058%=      5-min Rain = 0
KPD4 070315Z 15009KT 26/17 A3004 RMK A01 T02590171  RH  058%=      5-min Rain = 0
KPD4 070316Z 15009KT 26/17 A3004 RMK A01 T02590170  RH  058%=      5-min Rain = 0
KPD4 070317Z 15008KT 26/17 A3004 RMK A01 T02600171  RH  058%=      5-min Rain = 0
KPD4 070318Z 15008KT 26/17 A3004 RMK A01 T02600171  RH  058%=      5-min Rain = 0
KPD4 070319Z 15008KT 26/17 A3004 RMK A01 T02590171  RH  058%=      5-min Rain = 0
KPD4 070320Z 15009KT 26/17 A3004 RMK A01 T02580170  RH  058%=      5-min Rain = 0
KPD4 070321Z 16009KT 26/17 A3004 RMK A01 T02580170  RH  058%=      5-min Rain = 0
KPD4 070322Z 15009KT 26/17 A3004 RMK A01 T02580170  RH  058%=      5-min Rain = 0
KPD4 070323Z 15009KT 26/17 A3004 RMK A01 T02570170  RH  058%=      5-min Rain = 0
KPD4 070324Z 15010KT 26/17 A3004 RMK A01 T02570170  RH  058%=      5-min Rain = 0
KPD4 070325Z 15010KT 26/17 A3004 RMK A01 T02570170  RH  058%=      5-min Rain = 0
KPD4 070326Z 15009KT 26/17 A3004 RMK A01 T02570170  RH  059%=      5-min Rain = 0
KPD4 070327Z 14010KT 26/17 A3004 RMK A01 T02570171  RH  059%=      5-min Rain = 0
KPD4 070328Z 14011KT 26/17 A3004 RMK A01 T02570170  RH  059%=      5-min Rain = 0
KPD4 070329Z 14009KT 26/17 A3004 RMK A01 T02560169  RH  059%=      5-min Rain = 0
KPD4 070330Z 15009KT 26/17 A3004 RMK A01 T02560169  RH  058%=      5-min Rain = 0
KPD4 070331Z 15009KT 26/17 A3004 RMK A01 T02570169  RH  058%=      5-min Rain = 0
KPD4 070332Z 15009KT 26/17 A3004 RMK A01 T02570169  RH  058%=      5-min Rain = 0
KPD4 070333Z 15008KT 26/17 A3004 RMK A01 T02570169  RH  058%=      5-min Rain = 0
KPD4 070334Z 17009KT 26/17 A3004 RMK A01 T02560169  RH  059%=      5-min Rain = 0
KPD4 070335Z 17008KT 26/17 A3004 RMK A01 T02550169  RH  059%=      5-min Rain = 0
KPD4 070336Z 17009KT 25/17 A3004 RMK A01 T02540169  RH  059%=      5-min Rain = 0
KPD4 070337Z 17007KT 25/17 A3004 RMK A01 T02540169  RH  059%=      5-min Rain = 0
KPD4 070338Z 16008KT 25/17 A3004 RMK A01 T02520168  RH  060%=      5-min Rain = 0
KPD4 070339Z 16008KT 25/17 A3004 RMK A01 T02520168  RH  060%=      5-min Rain = 0
KPD4 070340Z 17008KT 25/17 A3004 RMK A01 T02510168  RH  060%=      5-min Rain = 0
KPD4 070341Z 17009KT 25/17 A3004 RMK A01 T02510168  RH  060%=      5-min Rain = 0
KPD4 070342Z 17009KT 25/17 A3004 RMK A01 T02500168  RH  060%=      5-min Rain = 0
KPD4 070343Z 16009KT 25/17 A3004 RMK A01 T02500168  RH  061%=      5-min Rain = 0
KPD4 070344Z 16008KT 25/17 A3004 RMK A01 T02490168  RH  061%=      5-min Rain = 0
KPD4 070345Z 16008KT 25/17 A3004 RMK A01 T02490168  RH  061%=      5-min Rain = 0
KPD4 070346Z 16008KT 25/17 A3004 RMK A01 T02490169  RH  061%=      5-min Rain = 0
KPD4 070347Z 16008KT 25/17 A3004 RMK A01 T02480169  RH  061%=      5-min Rain = 0
KPD4 070348Z 16007KT 25/17 A3004 RMK A01 T02480169  RH  061%=      5-min Rain = 0
KPD4 070349Z 16008KT 25/17 A3004 RMK A01 T02470169  RH  062%=      5-min Rain = 0
KPD4 070350Z 16007KT 25/17 A3004 RMK A01 T02470169  RH  062%=      5-min Rain = 0
KPD4 070351Z 16008KT 25/17 A3004 RMK A01 T02470170  RH  062%=      5-min Rain = 0
KPD4 070352Z 16008KT 25/17 A3004 RMK A01 T02460170  RH  062%=      5-min Rain = 0
KPD4 070353Z 17007KT 25/17 A3004 RMK A01 T02460170  RH  063%=      5-min Rain = 0
KPD4 070354Z 17008KT 25/17 A3004 RMK A01 T02460171  RH  063%=      5-min Rain = 0
KPD4 070355Z 17007KT 25/17 A3004 RMK A01 T02460173  RH  064%=      5-min Rain = 0
KPD4 070356Z 17008KT 25/17 A3004 RMK A01 T02460173  RH  064%=      5-min Rain = 0
KPD4 070357Z 18007KT 25/17 A3004 RMK A01 T02460173  RH  064%=      5-min Rain = 0
KPD4 070358Z 18007KT 25/17 A3004 RMK A01 T02450173  RH  064%=      5-min Rain = 0
KPD4 070359Z 18006KT 25/17 A3004 RMK A01 T02450174  RH  065%=      5-min Rain = 0
KPD4 070400Z 18007KT 24/17 A3004 RMK A01 T02440174  RH  065%=      5-min Rain = 0
KPD4 070401Z 17007KT 24/17 A3004 RMK A01 T02440174  RH  065%=      5-min Rain = 0
KPD4 070402Z 18006KT 24/18 A3005 RMK A01 T02440175  RH  065%=      5-min Rain = 0
KPD4 070403Z 18006KT 24/18 A3005 RMK A01 T02440175  RH  066%=      5-min Rain = 0
KPD4 070404Z 17007KT 24/18 A3005 RMK A01 T02430175  RH  066%=      5-min Rain = 0
KPD4 070405Z 17007KT 24/18 A3005 RMK A01 T02430177  RH  066%=      5-min Rain = 0
KPD4 070406Z 17007KT 24/18 A3005 RMK A01 T02430177  RH  067%=      5-min Rain = 0
KPD4 070407Z 17007KT 24/18 A3005 RMK A01 T02430177  RH  067%=      5-min Rain = 0
KPD4 070408Z 17006KT 24/18 A3005 RMK A01 T02440177  RH  066%=      5-min Rain = 0
KPD4 070409Z 17006KT 24/18 A3005 RMK A01 T02440177  RH  066%=      5-min Rain = 0
KPD4 070410Z 16006KT 24/18 A3005 RMK A01 T02430178  RH  067%=      5-min Rain = 0
KPD4 070411Z 16006KT 24/18 A3005 RMK A01 T02430178  RH  067%=      5-min Rain = 0
KPD4 070412Z 17006KT 24/18 A3005 RMK A01 T02430178  RH  067%=      5-min Rain = 0
KPD4 070413Z 17006KT 24/18 A3005 RMK A01 T02420178  RH  067%=      5-min Rain = 0
KPD4 070414Z 17007KT 24/18 A3005 RMK A01 T02410178  RH  068%=      5-min Rain = 0
KPD4 070415Z 17007KT 24/18 A3005 RMK A01 T02410179  RH  068%=      5-min Rain = 0
KPD4 070416Z 17006KT 24/18 A3005 RMK A01 T02410179  RH  068%=      5-min Rain = 0
KPD4 070417Z 18006KT 24/18 A3005 RMK A01 T02410179  RH  068%=      5-min Rain = 0
KPD4 070418Z 18007KT 24/18 A3005 RMK A01 T02400178  RH  068%=      5-min Rain = 0
KPD4 070419Z 19006KT 24/18 A3005 RMK A01 T02390178  RH  069%=      5-min Rain = 0
KPD4 070420Z 19006KT 24/18 A3005 RMK A01 T02390178  RH  069%=      5-min Rain = 0
KPD4 070421Z 19006KT 24/18 A3005 RMK A01 T02380178  RH  069%=      5-min Rain = 0
KPD4 070422Z 19007KT 24/18 A3005 RMK A01 T02370178  RH  069%=      5-min Rain = 0
KPD4 070423Z 19007KT 24/18 A3005 RMK A01 T02370178  RH  069%=      5-min Rain = 0
KPD4 070424Z 19006KT 24/18 A3005 RMK A01 T02370178  RH  069%=      5-min Rain = 0
KPD4 070425Z 19007KT 24/18 A3005 RMK A01 T02370178  RH  069%=      5-min Rain = 0
KPD4 070426Z 19007KT 24/18 A3005 RMK A01 T02370178  RH  070%=      5-min Rain = 0
KPD4 070427Z 19007KT 24/18 A3005 RMK A01 T02370179  RH  070%=      5-min Rain = 0
KPD4 070428Z 19007KT 24/18 A3005 RMK A01 T02360178  RH  070%=      5-min Rain = 0
KPD4 070429Z 19007KT 24/18 A3005 RMK A01 T02360178  RH  070%=      5-min Rain = 0
KPD4 070430Z 19007KT 24/18 A3005 RMK A01 T02360179  RH  070%=      5-min Rain = 0
KPD4 070431Z 19007KT 24/18 A3005 RMK A01 T02350179  RH  071%=      5-min Rain = 0
KPD4 070432Z 18006KT 24/18 A3005 RMK A01 T02350179  RH  071%=      5-min Rain = 0
KPD4 070433Z 18007KT 24/18 A3005 RMK A01 T02350180  RH  071%=      5-min Rain = 0
KPD4 070434Z 18007KT 24/18 A3005 RMK A01 T02350180  RH  071%=      5-min Rain = 0
KPD4 070435Z 18007KT 24/18 A3005 RMK A01 T02350180  RH  071%=      5-min Rain = 0
KPD4 070436Z 18007KT 24/18 A3005 RMK A01 T02360181  RH  071%=      5-min Rain = 0
KPD4 070437Z 18007KT 24/18 A3005 RMK A01 T02360180  RH  071%=      5-min Rain = 0
KPD4 070438Z 18007KT 24/18 A3005 RMK A01 T02360181  RH  071%=      5-min Rain = 0
KPD4 070439Z 18007KT 24/18 A3005 RMK A01 T02360181  RH  071%=      5-min Rain = 0
KPD4 070440Z 18007KT 24/18 A3005 RMK A01 T02360181  RH  071%=      5-min Rain = 0
KPD4 070441Z 18007KT 24/18 A3005 RMK A01 T02360181  RH  071%=      5-min Rain = 0
KPD4 070442Z 18007KT 24/18 A3005 RMK A01 T02360181  RH  071%=      5-min Rain = 0
KPD4 070443Z 18007KT 24/18 A3005 RMK A01 T02360181  RH  071%=      5-min Rain = 0
KPD4 070444Z 18007KT 24/18 A3005 RMK A01 T02360180  RH  071%=      5-min Rain = 0
KPD4 070445Z 18007KT 24/18 A3005 RMK A01 T02360181  RH  071%=      5-min Rain = 0
KPD4 070446Z 18007KT 24/18 A3005 RMK A01 T02350181  RH  071%=      5-min Rain = 0
KPD4 070447Z 18007KT 24/18 A3005 RMK A01 T02350181  RH  071%=      5-min Rain = 0
KPD4 070448Z 18007KT 24/18 A3005 RMK A01 T02350181  RH  072%=      5-min Rain = 0
KPD4 070449Z 17006KT 24/18 A3005 RMK A01 T02350181  RH  072%=      5-min Rain = 0
KPD4 070450Z 17007KT 24/18 A3005 RMK A01 T02350181  RH  072%=      5-min Rain = 0
KPD4 070451Z 17007KT 23/18 A3005 RMK A01 T02340181  RH  072%=      5-min Rain = 0
KPD4 070452Z 17007KT 23/18 A3005 RMK A01 T02340180  RH  072%=      5-min Rain = 0
KPD4 070453Z 17007KT 23/18 A3005 RMK A01 T02340180  RH  072%=      5-min Rain = 0
KPD4 070454Z 18007KT 23/18 A3005 RMK A01 T02340181  RH  072%=      5-min Rain = 0
KPD4 070455Z 17007KT 23/18 A3005 RMK A01 T02340181  RH  072%=      5-min Rain = 0
KPD4 070456Z 17007KT 23/18 A3005 RMK A01 T02340181  RH  072%=      5-min Rain = 0
KPD4 070457Z 18007KT 23/18 A3006 RMK A01 T02330181  RH  072%=      5-min Rain = 0
KPD4 070458Z 18006KT 23/18 A3006 RMK A01 T02330180  RH  072%=      5-min Rain = 0
KPD4 070459Z 18006KT 23/18 A3006 RMK A01 T02320180  RH  072%=      5-min Rain = 0

Page generated in 0.1237 seconds.